Time,TemperatureF,DewpointF,PressureIn,WindDirection,WindDirectionDegrees,WindSpeedMPH,WindSpeedGustMPH,Humidity,HourlyPrecipIn,Conditions,Clouds,dailyrainin,SoftwareType,DateUTC
2013-03-23 00:02:00,66.3,54.6,29.62,East,85,5.0,11.0,66,0.00,,,0.00,Wunderground v.1.15,2013-03-23 05:02:00,
2013-03-23 00:03:00,66.1,54.4,29.62,East,88,5.0,11.0,66,0.00,,,0.00,Wunderground v.1.15,2013-03-23 05:03:00,
2013-03-23 00:04:00,66.1,54.8,29.62,East,82,5.0,11.0,67,0.00,,,0.00,Wunderground v.1.15,2013-03-23 05:04:00,
2013-03-23 00:07:00,66.0,54.7,29.62,ESE,102,5.0,11.0,67,0.00,,,0.00,Wunderground v.1.15,2013-03-23 05:07:00,
2013-03-23 00:09:00,65.8,54.5,29.62,ENE,68,5.0,11.0,67,0.00,,,0.00,Wunderground v.1.15,2013-03-23 05:09:00,
2013-03-23 00:11:00,65.6,54.3,29.62,East,85,5.0,11.0,67,0.00,,,0.00,Wunderground v.1.15,2013-03-23 05:11:00,
2013-03-23 00:14:00,65.5,54.7,29.62,ENE,78,5.0,11.0,68,0.00,,,0.00,Wunderground v.1.15,2013-03-23 05:14:00,
2013-03-23 00:17:00,65.5,54.7,29.61,ESE,116,6.0,11.0,68,0.00,,,0.00,Wunderground v.1.15,2013-03-23 05:17:00,
2013-03-23 00:18:00,65.3,54.5,29.61,East,96,6.0,11.0,68,0.00,,,0.00,Wunderground v.1.15,2013-03-23 05:18:00,
2013-03-23 00:19:00,65.3,54.5,29.61,ESE,110,6.0,11.0,68,0.00,,,0.00,Wunderground v.1.15,2013-03-23 05:19:00,
2013-03-23 00:23:00,65.3,54.9,29.61,East,88,5.0,12.0,69,0.00,,,0.00,Wunderground v.1.15,2013-03-23 05:23:00,
2013-03-23 00:24:00,65.3,54.5,29.61,ESE,112,5.0,12.0,68,0.00,,,0.00,Wunderground v.1.15,2013-03-23 05:24:00,
2013-03-23 00:25:00,65.3,54.5,29.61,ESE,119,5.0,12.0,68,0.00,,,0.00,Wunderground v.1.15,2013-03-23 05:25:00,
2013-03-23 00:27:00,65.2,54.4,29.61,East,83,5.0,12.0,68,0.00,,,0.00,Wunderground v.1.15,2013-03-23 05:27:00,
2013-03-23 00:28:00,65.2,54.4,29.61,East,97,4.0,12.0,68,0.00,,,0.00,Wunderground v.1.15,2013-03-23 05:28:00,
2013-03-23 00:29:00,65.2,54.4,29.61,East,97,4.0,12.0,68,0.00,,,0.00,Wunderground v.1.15,2013-03-23 05:29:00,
2013-03-23 00:31:00,65.2,54.4,29.61,East,82,3.0,12.0,68,0.00,,,0.00,Wunderground v.1.15,2013-03-23 05:31:00,
2013-03-23 00:34:00,65.0,54.2,29.61,ESE,106,4.0,12.0,68,0.00,,,0.00,Wunderground v.1.15,2013-03-23 05:34:00,
2013-03-23 00:35:00,65.0,54.2,29.61,East,83,4.0,12.0,68,0.00,,,0.00,Wunderground v.1.15,2013-03-23 05:35:00,
2013-03-23 00:36:00,64.8,54.0,29.61,East,79,4.0,12.0,68,0.00,,,0.00,Wunderground v.1.15,2013-03-23 05:36:00,
2013-03-23 00:38:00,64.7,53.9,29.61,East,83,4.0,12.0,68,0.00,,,0.00,Wunderground v.1.15,2013-03-23 05:38:00,
2013-03-23 00:41:00,64.3,53.5,29.61,East,100,5.0,13.0,68,0.00,,,0.00,Wunderground v.1.15,2013-03-23 05:41:00,
2013-03-23 00:42:00,64.2,53.8,29.61,SE,124,5.0,13.0,69,0.00,,,0.00,Wunderground v.1.15,2013-03-23 05:42:00,
2013-03-23 00:45:00,64.0,53.6,29.61,East,80,5.0,13.0,69,0.00,,,0.00,Wunderground v.1.15,2013-03-23 05:45:00,
2013-03-23 00:47:00,63.9,53.5,29.61,ENE,58,5.0,13.0,69,0.00,,,0.00,Wunderground v.1.15,2013-03-23 05:47:00,
2013-03-23 00:49:00,63.7,53.3,29.61,ENE,72,5.0,13.0,69,0.00,,,0.00,Wunderground v.1.15,2013-03-23 05:49:00,
2013-03-23 00:54:00,63.4,53.0,29.61,NE,56,4.0,13.0,69,0.00,,,0.00,Wunderground v.1.15,2013-03-23 05:54:00,
2013-03-23 00:55:00,63.4,53.0,29.61,East,89,4.0,13.0,69,0.00,,,0.00,Wunderground v.1.15,2013-03-23 05:55:00,
2013-03-23 00:56:00,63.2,52.9,29.61,ESE,106,4.0,13.0,69,0.00,,,0.00,Wunderground v.1.15,2013-03-23 05:56:00,
2013-03-23 01:01:00,63.1,53.2,29.61,East,90,4.0,4.0,70,0.00,,,0.00,Wunderground v.1.15,2013-03-23 06:01:00,
2013-03-23 01:02:00,63.1,53.2,29.61,East,89,4.0,12.0,70,0.00,,,0.00,Wunderground v.1.15,2013-03-23 06:02:00,
2013-03-23 01:03:00,63.1,53.2,29.61,East,89,4.0,12.0,70,0.00,,,0.00,Wunderground v.1.15,2013-03-23 06:03:00,
2013-03-23 01:08:00,62.9,53.0,29.61,ENE,64,4.0,12.0,70,0.00,,,0.00,Wunderground v.1.15,2013-03-23 06:08:00,
2013-03-23 01:09:00,62.9,53.0,29.61,ENE,65,4.0,12.0,70,0.00,,,0.00,Wunderground v.1.15,2013-03-23 06:09:00,
2013-03-23 01:12:00,62.9,53.0,29.61,ENE,75,3.0,11.0,70,0.00,,,0.00,Wunderground v.1.15,2013-03-23 06:12:00,
2013-03-23 01:14:00,62.9,53.0,29.61,ESE,107,3.0,11.0,70,0.00,,,0.00,Wunderground v.1.15,2013-03-23 06:14:00,
2013-03-23 01:15:00,62.7,52.8,29.61,East,93,3.0,11.0,70,0.00,,,0.00,Wunderground v.1.15,2013-03-23 06:15:00,
2013-03-23 01:19:00,62.6,53.1,29.61,East,86,4.0,11.0,71,0.00,,,0.00,Wunderground v.1.15,2013-03-23 06:19:00,
2013-03-23 01:21:00,62.4,52.9,29.61,East,89,4.0,4.0,71,0.00,,,0.00,Wunderground v.1.15,2013-03-23 06:21:00,
2013-03-23 01:23:00,62.4,52.9,29.61,East,88,5.0,8.0,71,0.00,,,0.00,Wunderground v.1.15,2013-03-23 06:23:00,
2013-03-23 01:24:00,62.3,52.8,29.61,East,83,5.0,10.0,71,0.00,,,0.00,Wunderground v.1.15,2013-03-23 06:24:00,
2013-03-23 01:26:00,62.3,53.2,29.61,ENE,71,5.0,10.0,72,0.00,,,0.00,Wunderground v.1.15,2013-03-23 06:26:00,
2013-03-23 01:29:00,62.3,53.2,29.61,East,83,4.0,10.0,72,0.00,,,0.00,Wunderground v.1.15,2013-03-23 06:29:00,
2013-03-23 01:31:00,62.1,53.0,29.60,East,93,4.0,11.0,72,0.00,,,0.00,Wunderground v.1.15,2013-03-23 06:31:00,
2013-03-23 01:33:00,62.1,53.0,29.60,East,93,4.0,11.0,72,0.00,,,0.00,Wunderground v.1.15,2013-03-23 06:33:00,
2013-03-23 01:35:00,62.0,52.9,29.60,East,85,4.0,11.0,72,0.00,,,0.00,Wunderground v.1.15,2013-03-23 06:35:00,
2013-03-23 01:39:00,61.8,52.7,29.60,ENE,65,4.0,11.0,72,0.00,,,0.00,Wunderground v.1.15,2013-03-23 06:39:00,
2013-03-23 01:41:00,61.8,52.7,29.60,East,92,4.0,4.0,72,0.00,,,0.00,Wunderground v.1.15,2013-03-23 06:41:00,
2013-03-23 01:42:00,61.8,52.7,29.60,East,92,4.0,10.0,72,0.00,,,0.00,Wunderground v.1.15,2013-03-23 06:42:00,
2013-03-23 01:43:00,61.6,52.5,29.60,East,79,4.0,10.0,72,0.00,,,0.00,Wunderground v.1.15,2013-03-23 06:43:00,
2013-03-23 01:46:00,61.6,52.9,29.61,East,86,4.0,10.0,73,0.00,,,0.00,Wunderground v.1.15,2013-03-23 06:46:00,
2013-03-23 01:47:00,61.5,52.8,29.61,East,88,4.0,10.0,73,0.00,,,0.00,Wunderground v.1.15,2013-03-23 06:47:00,
2013-03-23 01:48:00,61.5,52.8,29.61,ENE,71,4.0,10.0,73,0.00,,,0.00,Wunderground v.1.15,2013-03-23 06:48:00,
2013-03-23 01:52:00,61.5,52.8,29.61,East,82,3.0,4.0,73,0.00,,,0.00,Wunderground v.1.15,2013-03-23 06:52:00,
2013-03-23 01:53:00,61.5,52.8,29.61,East,92,3.0,8.0,73,0.00,,,0.00,Wunderground v.1.15,2013-03-23 06:53:00,
2013-03-23 01:55:00,61.5,53.1,29.61,East,79,3.0,8.0,74,0.00,,,0.00,Wunderground v.1.15,2013-03-23 06:55:00,
2013-03-23 01:58:00,61.3,52.9,29.61,East,85,4.0,8.0,74,0.00,,,0.00,Wunderground v.1.15,2013-03-23 06:58:00,
2013-03-23 01:59:00,61.3,52.9,29.61,East,83,4.0,8.0,74,0.00,,,0.00,Wunderground v.1.15,2013-03-23 06:59:00,
2013-03-23 02:01:00,61.2,52.5,29.61,East,85,4.0,10.0,73,0.00,,,0.00,Wunderground v.1.15,2013-03-23 07:01:00,
2013-03-23 02:02:00,61.2,52.5,29.61,NE,52,4.0,10.0,73,0.00,,,0.00,Wunderground v.1.15,2013-03-23 07:02:00,
2013-03-23 02:05:00,61.0,51.9,29.61,NE,45,5.0,10.0,72,0.00,,,0.00,Wunderground v.1.15,2013-03-23 07:05:00,
2013-03-23 02:08:00,61.0,51.9,29.61,NE,47,4.0,10.0,72,0.00,,,0.00,Wunderground v.1.15,2013-03-23 07:08:00,
2013-03-23 02:09:00,61.0,51.9,29.61,NE,42,4.0,10.0,72,0.00,,,0.00,Wunderground v.1.15,2013-03-23 07:09:00,
2013-03-23 02:10:00,60.9,51.8,29.61,NE,38,4.0,11.0,72,0.00,,,0.00,Wunderground v.1.15,2013-03-23 07:10:00,
2013-03-23 02:11:00,60.9,51.8,29.61,NE,55,4.0,11.0,72,0.00,,,0.00,Wunderground v.1.15,2013-03-23 07:11:00,
2013-03-23 02:14:00,60.9,52.2,29.61,ENE,62,5.0,11.0,73,0.00,,,0.00,Wunderground v.1.15,2013-03-23 07:14:00,
2013-03-23 02:19:00,60.7,52.4,29.61,NNE,30,4.0,11.0,74,0.00,,,0.00,Wunderground v.1.15,2013-03-23 07:19:00,
2013-03-23 02:21:00,60.7,52.4,29.61,ENE,72,4.0,10.0,74,0.00,,,0.00,Wunderground v.1.15,2013-03-23 07:21:00,
2013-03-23 02:22:00,60.7,52.4,29.61,ENE,62,4.0,10.0,74,0.00,,,0.00,Wunderground v.1.15,2013-03-23 07:22:00,
2013-03-23 02:23:00,60.7,52.7,29.61,ENE,62,4.0,10.0,75,0.00,,,0.00,Wunderground v.1.15,2013-03-23 07:23:00,
2013-03-23 02:27:00,60.5,52.5,29.61,North,0,4.0,10.0,75,0.00,,,0.00,Wunderground v.1.15,2013-03-23 07:27:00,
2013-03-23 02:28:00,60.5,52.5,29.61,North,0,4.0,10.0,75,0.00,,,0.00,Wunderground v.1.15,2013-03-23 07:28:00,
2013-03-23 02:29:00,60.5,52.5,29.61,NE,44,4.0,10.0,75,0.00,,,0.00,Wunderground v.1.15,2013-03-23 07:29:00,
2013-03-23 02:32:00,60.4,52.1,29.61,NE,48,5.0,9.0,74,0.00,,,0.00,Wunderground v.1.15,2013-03-23 07:32:00,
2013-03-23 02:35:00,60.4,52.4,29.61,ENE,62,5.0,11.0,75,0.00,,,0.00,Wunderground v.1.15,2013-03-23 07:35:00,
2013-03-23 02:37:00,60.4,52.4,29.61,NE,49,5.0,11.0,75,0.00,,,0.00,Wunderground v.1.15,2013-03-23 07:37:00,
2013-03-23 02:38:00,60.2,52.2,29.61,NE,40,5.0,11.0,75,0.00,,,0.00,Wunderground v.1.15,2013-03-23 07:38:00,
2013-03-23 02:41:00,60.1,52.1,29.61,NE,45,5.0,11.0,75,0.00,,,0.00,Wunderground v.1.15,2013-03-23 07:41:00,
2013-03-23 02:44:00,60.1,52.1,29.61,NE,40,5.0,11.0,75,0.00,,,0.00,Wunderground v.1.15,2013-03-23 07:44:00,
2013-03-23 02:45:00,60.1,52.5,29.61,NE,38,5.0,11.0,76,0.00,,,0.00,Wunderground v.1.15,2013-03-23 07:45:00,
2013-03-23 02:48:00,60.1,52.5,29.61,NE,37,5.0,11.0,76,0.00,,,0.00,Wunderground v.1.15,2013-03-23 07:48:00,
2013-03-23 02:52:00,60.1,52.5,29.61,NE,35,4.0,12.0,76,0.00,,,0.00,Wunderground v.1.15,2013-03-23 07:52:00,
2013-03-23 02:53:00,60.1,52.5,29.61,NNE,18,4.0,12.0,76,0.00,,,0.00,Wunderground v.1.15,2013-03-23 07:53:00,
2013-03-23 02:54:00,60.1,52.5,29.61,NE,49,4.0,12.0,76,0.00,,,0.00,Wunderground v.1.15,2013-03-23 07:54:00,
2013-03-23 02:55:00,60.1,52.5,29.61,NNE,28,4.0,12.0,76,0.00,,,0.00,Wunderground v.1.15,2013-03-23 07:55:00,
2013-03-23 02:58:00,60.2,52.6,29.61,NE,34,5.0,12.0,76,0.00,,,0.00,Wunderground v.1.15,2013-03-23 07:58:00,
2013-03-23 02:59:00,60.2,52.6,29.61,NNE,23,5.0,12.0,76,0.00,,,0.00,Wunderground v.1.15,2013-03-23 07:59:00,
2013-03-23 03:00:00,60.1,52.5,29.61,NNE,23,5.0,5.0,76,0.00,,,0.00,Wunderground v.1.15,2013-03-23 08:00:00,
2013-03-23 03:01:00,60.1,52.5,29.61,North,356,5.0,7.0,76,0.00,,,0.00,Wunderground v.1.15,2013-03-23 08:01:00,
2013-03-23 03:08:00,60.1,52.1,29.61,NNE,14,4.0,7.0,75,0.00,,,0.00,Wunderground v.1.15,2013-03-23 08:08:00,
2013-03-23 03:09:00,60.1,52.1,29.61,NE,47,4.0,7.0,75,0.00,,,0.00,Wunderground v.1.15,2013-03-23 08:09:00,
2013-03-23 03:10:00,60.1,52.1,29.61,NNE,28,4.0,10.0,75,0.00,,,0.00,Wunderground v.1.15,2013-03-23 08:10:00,
2013-03-23 03:13:00,59.9,52.0,29.61,NNE,24,4.0,10.0,75,0.00,,,0.00,Wunderground v.1.15,2013-03-23 08:13:00,
2013-03-23 03:16:00,59.9,52.0,29.61,NNE,14,4.0,10.0,75,0.00,,,0.00,Wunderground v.1.15,2013-03-23 08:16:00,
2013-03-23 03:17:00,59.9,52.0,29.61,NNE,31,4.0,10.0,75,0.00,,,0.00,Wunderground v.1.15,2013-03-23 08:17:00,
2013-03-23 03:20:00,59.9,52.0,29.61,North,357,4.0,10.0,75,0.00,,,0.00,Wunderground v.1.15,2013-03-23 08:20:00,
2013-03-23 03:22:00,59.9,52.0,29.61,North,0,4.0,8.0,75,0.00,,,0.00,Wunderground v.1.15,2013-03-23 08:22:00,
2013-03-23 03:27:00,60.1,52.1,29.61,North,0,5.0,10.0,75,0.00,,,0.00,Wunderground v.1.15,2013-03-23 08:27:00,
2013-03-23 03:28:00,60.1,52.1,29.61,North,8,6.0,10.0,75,0.00,,,0.00,Wunderground v.1.15,2013-03-23 08:28:00,
2013-03-23 03:30:00,60.1,52.5,29.61,North,4,6.0,10.0,76,0.00,,,0.00,Wunderground v.1.15,2013-03-23 08:30:00,
2013-03-23 03:33:00,60.1,52.5,29.61,NNE,14,6.0,7.0,76,0.00,,,0.00,Wunderground v.1.15,2013-03-23 08:33:00,
2013-03-23 03:36:00,60.1,52.5,29.61,NNE,14,5.0,7.0,76,0.00,,,0.00,Wunderground v.1.15,2013-03-23 08:36:00,
2013-03-23 03:37:00,60.1,52.5,29.61,NNE,14,4.0,7.0,76,0.00,,,0.00,Wunderground v.1.15,2013-03-23 08:37:00,
2013-03-23 03:38:00,60.1,52.5,29.61,NE,34,4.0,7.0,76,0.00,,,0.00,Wunderground v.1.15,2013-03-23 08:38:00,
2013-03-23 03:41:00,60.1,52.5,29.61,NNE,21,4.0,11.0,76,0.00,,,0.00,Wunderground v.1.15,2013-03-23 08:41:00,
2013-03-23 03:43:00,60.1,52.5,29.61,North,359,4.0,11.0,76,0.00,,,0.00,Wunderground v.1.15,2013-03-23 08:43:00,
2013-03-23 03:46:00,60.1,52.9,29.60,North,357,4.0,11.0,77,0.00,,,0.00,Wunderground v.1.15,2013-03-23 08:46:00,
2013-03-23 03:47:00,60.1,52.9,29.60,North,0,4.0,11.0,77,0.00,,,0.00,Wunderground v.1.15,2013-03-23 08:47:00,
2013-03-23 03:51:00,59.9,52.3,29.60,North,0,4.0,8.0,76,0.00,,,0.00,Wunderground v.1.15,2013-03-23 08:51:00,
2013-03-23 03:52:00,59.9,52.0,29.60,NNE,13,4.0,8.0,75,0.00,,,0.00,Wunderground v.1.15,2013-03-23 08:52:00,
2013-03-23 03:55:00,59.6,51.3,29.60,NNE,28,4.0,8.0,74,0.00,,,0.00,Wunderground v.1.15,2013-03-23 08:55:00,
2013-03-23 03:57:00,59.6,51.3,29.60,North,8,4.0,11.0,74,0.00,,,0.00,Wunderground v.1.15,2013-03-23 08:57:00,
2013-03-23 03:58:00,59.6,50.9,29.60,North,359,5.0,11.0,73,0.00,,,0.00,Wunderground v.1.15,2013-03-23 08:58:00,
2013-03-23 04:02:00,59.5,50.8,29.60,NNE,13,5.0,9.0,73,0.00,,,0.00,Wunderground v.1.15,2013-03-23 09:02:00,
2013-03-23 04:03:00,59.6,50.9,29.60,NE,37,5.0,9.0,73,0.00,,,0.00,Wunderground v.1.15,2013-03-23 09:03:00,
2013-03-23 04:07:00,59.5,51.2,29.60,North,0,5.0,9.0,74,0.00,,,0.00,Wunderground v.1.15,2013-03-23 09:07:00,
2013-03-23 04:08:00,59.3,51.0,29.60,North,4,5.0,9.0,74,0.00,,,0.00,Wunderground v.1.15,2013-03-23 09:08:00,
2013-03-23 04:10:00,59.3,51.4,29.60,North,10,5.0,11.0,75,0.00,,,0.00,Wunderground v.1.15,2013-03-23 09:10:00,
2013-03-23 04:12:00,59.3,51.4,29.60,NNE,32,5.0,11.0,75,0.00,,,0.00,Wunderground v.1.15,2013-03-23 09:12:00,
2013-03-23 04:16:00,59.2,51.3,29.60,North,359,5.0,11.0,75,0.00,,,0.00,Wunderground v.1.15,2013-03-23 09:16:00,
2013-03-23 04:17:00,59.2,51.3,29.60,North,11,5.0,11.0,75,0.00,,,0.00,Wunderground v.1.15,2013-03-23 09:17:00,
2013-03-23 04:18:00,59.2,51.3,29.60,NE,41,5.0,11.0,75,0.00,,,0.00,Wunderground v.1.15,2013-03-23 09:18:00,
2013-03-23 04:21:00,59.2,51.3,29.60,North,0,4.0,10.0,75,0.00,,,0.00,Wunderground v.1.15,2013-03-23 09:21:00,
2013-03-23 04:24:00,59.0,51.1,29.60,NNE,21,5.0,10.0,75,0.00,,,0.00,Wunderground v.1.15,2013-03-23 09:24:00,
2013-03-23 04:25:00,59.2,51.3,29.60,NNE,21,4.0,10.0,75,0.00,,,0.00,Wunderground v.1.15,2013-03-23 09:25:00,
2013-03-23 04:28:00,59.2,51.6,29.60,North,0,4.0,10.0,76,0.00,,,0.00,Wunderground v.1.15,2013-03-23 09:28:00,
2013-03-23 04:31:00,59.2,51.6,29.60,North,0,4.0,10.0,76,0.00,,,0.00,Wunderground v.1.15,2013-03-23 09:31:00,
2013-03-23 04:33:00,59.2,51.6,29.60,North,0,4.0,10.0,76,0.00,,,0.00,Wunderground v.1.15,2013-03-23 09:33:00,
2013-03-23 04:34:00,59.2,51.6,29.60,North,0,3.0,10.0,76,0.00,,,0.00,Wunderground v.1.15,2013-03-23 09:34:00,
2013-03-23 04:37:00,59.2,51.6,29.60,NNE,23,4.0,10.0,76,0.00,,,0.00,Wunderground v.1.15,2013-03-23 09:37:00,
2013-03-23 04:38:00,59.2,51.6,29.60,NNE,23,4.0,10.0,76,0.00,,,0.00,Wunderground v.1.15,2013-03-23 09:38:00,
2013-03-23 04:43:00,59.2,52.0,29.60,North,10,4.0,10.0,77,0.00,,,0.00,Wunderground v.1.15,2013-03-23 09:43:00,
2013-03-23 04:44:00,59.0,51.8,29.60,North,0,4.0,10.0,77,0.00,,,0.00,Wunderground v.1.15,2013-03-23 09:44:00,
2013-03-23 04:47:00,59.0,51.8,29.60,NE,48,3.0,10.0,77,0.00,,,0.00,Wunderground v.1.15,2013-03-23 09:47:00,
2013-03-23 04:49:00,59.0,51.4,29.60,North,0,4.0,10.0,76,0.00,,,0.00,Wunderground v.1.15,2013-03-23 09:49:00,
2013-03-23 04:50:00,59.0,51.4,29.60,NNE,24,4.0,7.0,76,0.00,,,0.00,Wunderground v.1.15,2013-03-23 09:50:00,
2013-03-23 04:52:00,59.0,51.4,29.60,North,354,4.0,7.0,76,0.00,,,0.00,Wunderground v.1.15,2013-03-23 09:52:00,
2013-03-23 04:54:00,59.0,51.4,29.60,North,359,4.0,7.0,76,0.00,,,0.00,Wunderground v.1.15,2013-03-23 09:54:00,
2013-03-23 04:58:00,59.0,51.4,29.60,North,6,4.0,8.0,76,0.00,,,0.00,Wunderground v.1.15,2013-03-23 09:58:00,
2013-03-23 05:00:00,59.0,51.4,29.60,North,349,4.0,4.0,76,0.00,,,0.00,Wunderground v.1.15,2013-03-23 10:00:00,
2013-03-23 05:02:00,59.0,51.4,29.61,ENE,64,4.0,10.0,76,0.00,,,0.00,Wunderground v.1.15,2013-03-23 10:02:00,
2013-03-23 05:03:00,59.0,51.4,29.61,North,0,4.0,10.0,76,0.00,,,0.00,Wunderground v.1.15,2013-03-23 10:03:00,
2013-03-23 05:04:00,59.0,51.4,29.61,NNW,342,5.0,10.0,76,0.00,,,0.00,Wunderground v.1.15,2013-03-23 10:04:00,
2013-03-23 05:05:00,59.0,51.1,29.61,North,354,4.0,10.0,75,0.00,,,0.00,Wunderground v.1.15,2013-03-23 10:05:00,
2013-03-23 05:10:00,59.0,51.4,29.61,NE,40,4.0,10.0,76,0.00,,,0.00,Wunderground v.1.15,2013-03-23 10:10:00,
2013-03-23 05:12:00,59.0,51.4,29.61,North,11,4.0,10.0,76,0.00,,,0.00,Wunderground v.1.15,2013-03-23 10:12:00,
2013-03-23 05:15:00,59.0,51.4,29.61,North,11,5.0,10.0,76,0.00,,,0.00,Wunderground v.1.15,2013-03-23 10:15:00,
2013-03-23 05:17:00,59.0,51.4,29.60,North,11,4.0,10.0,76,0.00,,,0.00,Wunderground v.1.15,2013-03-23 10:17:00,
2013-03-23 05:18:00,59.0,51.4,29.60,NNE,25,4.0,10.0,76,0.00,,,0.00,Wunderground v.1.15,2013-03-23 10:18:00,
2013-03-23 05:21:00,59.0,51.4,29.60,NNE,27,5.0,11.0,76,0.00,,,0.00,Wunderground v.1.15,2013-03-23 10:21:00,
2013-03-23 05:22:00,59.0,51.4,29.60,NNE,27,5.0,11.0,76,0.00,,,0.00,Wunderground v.1.15,2013-03-23 10:22:00,
2013-03-23 05:23:00,59.0,51.4,29.60,NE,35,5.0,11.0,76,0.00,,,0.00,Wunderground v.1.15,2013-03-23 10:23:00,
2013-03-23 05:27:00,58.9,51.3,29.60,NE,34,4.0,11.0,76,0.00,,,0.00,Wunderground v.1.15,2013-03-23 10:27:00,
2013-03-23 05:30:00,58.9,51.3,29.60,NNE,25,4.0,10.0,76,0.00,,,0.00,Wunderground v.1.15,2013-03-23 10:30:00,
2013-03-23 05:32:00,58.9,51.3,29.59,NNE,17,4.0,10.0,76,0.00,,,0.00,Wunderground v.1.15,2013-03-23 10:32:00,
2013-03-23 05:33:00,58.9,51.3,29.59,NE,41,5.0,10.0,76,0.00,,,0.00,Wunderground v.1.15,2013-03-23 10:33:00,
2013-03-23 05:34:00,58.7,51.5,29.59,NNE,27,5.0,11.0,77,0.00,,,0.00,Wunderground v.1.15,2013-03-23 10:34:00,
2013-03-23 05:38:00,58.7,51.5,29.59,NE,40,6.0,11.0,77,0.00,,,0.00,Wunderground v.1.15,2013-03-23 10:38:00,
2013-03-23 05:40:00,58.6,51.4,29.59,NE,45,6.0,11.0,77,0.00,,,0.00,Wunderground v.1.15,2013-03-23 10:40:00,
2013-03-23 05:41:00,58.6,51.4,29.59,NE,42,6.0,11.0,77,0.00,,,0.00,Wunderground v.1.15,2013-03-23 10:41:00,
2013-03-23 05:42:00,58.6,51.4,29.59,NE,37,6.0,11.0,77,0.00,,,0.00,Wunderground v.1.15,2013-03-23 10:42:00,
2013-03-23 05:44:00,58.6,51.4,29.59,NNE,16,5.0,11.0,77,0.00,,,0.00,Wunderground v.1.15,2013-03-23 10:44:00,
2013-03-23 05:45:00,58.6,51.4,29.59,ENE,64,5.0,11.0,77,0.00,,,0.00,Wunderground v.1.15,2013-03-23 10:45:00,
2013-03-23 05:48:00,58.6,51.4,29.58,NE,45,6.0,11.0,77,0.00,,,0.00,Wunderground v.1.15,2013-03-23 10:48:00,
2013-03-23 05:51:00,58.6,51.8,29.58,NNE,24,6.0,12.0,78,0.00,,,0.00,Wunderground v.1.15,2013-03-23 10:51:00,
2013-03-23 05:52:00,58.6,51.8,29.58,NNE,24,5.0,12.0,78,0.00,,,0.00,Wunderground v.1.15,2013-03-23 10:52:00,
2013-03-23 05:53:00,58.6,51.8,29.58,NE,37,5.0,12.0,78,0.00,,,0.00,Wunderground v.1.15,2013-03-23 10:53:00,
2013-03-23 05:55:00,58.6,51.8,29.58,NE,37,5.0,12.0,78,0.00,,,0.00,Wunderground v.1.15,2013-03-23 10:55:00,
2013-03-23 05:58:00,58.4,51.6,29.58,NE,42,4.0,12.0,78,0.00,,,0.00,Wunderground v.1.15,2013-03-23 10:58:00,
2013-03-23 06:01:00,58.4,51.9,29.58,NE,38,4.0,12.0,79,0.00,,,0.00,Wunderground v.1.15,2013-03-23 11:01:00,
2013-03-23 06:02:00,58.4,51.9,29.58,NNE,25,4.0,12.0,79,0.00,,,0.00,Wunderground v.1.15,2013-03-23 11:02:00,
2013-03-23 06:05:00,58.4,51.9,29.58,NNE,27,4.0,12.0,79,0.00,,,0.00,Wunderground v.1.15,2013-03-23 11:05:00,
2013-03-23 06:07:00,58.4,51.9,29.58,ENE,59,4.0,12.0,79,0.00,,,0.00,Wunderground v.1.15,2013-03-23 11:07:00,
2013-03-23 06:10:00,58.4,51.9,29.58,NE,45,3.0,12.0,79,0.00,,,0.00,Wunderground v.1.15,2013-03-23 11:10:00,
2013-03-23 06:13:00,58.3,51.8,29.58,NE,44,3.0,10.0,79,0.00,,,0.00,Wunderground v.1.15,2013-03-23 11:13:00,
2013-03-23 06:16:00,58.3,51.8,29.59,NE,56,4.0,10.0,79,0.00,,,0.00,Wunderground v.1.15,2013-03-23 11:16:00,
2013-03-23 06:17:00,58.3,51.8,29.59,NE,55,4.0,10.0,79,0.00,,,0.00,Wunderground v.1.15,2013-03-23 11:17:00,
2013-03-23 06:20:00,58.1,51.6,29.59,NE,44,4.0,8.0,79,0.00,,,0.00,Wunderground v.1.15,2013-03-23 11:20:00,
2013-03-23 06:23:00,58.1,52.0,29.59,NNE,23,5.0,8.0,80,0.00,,,0.00,Wunderground v.1.15,2013-03-23 11:23:00,
2013-03-23 06:24:00,58.1,52.0,29.59,North,8,5.0,8.0,80,0.00,,,0.00,Wunderground v.1.15,2013-03-23 11:24:00,
2013-03-23 06:25:00,58.1,52.0,29.59,North,8,5.0,8.0,80,0.00,,,0.00,Wunderground v.1.15,2013-03-23 11:25:00,
2013-03-23 06:28:00,58.0,51.9,29.59,NE,49,5.0,8.0,80,0.00,,,0.00,Wunderground v.1.15,2013-03-23 11:28:00,
2013-03-23 06:30:00,58.0,51.9,29.59,North,359,5.0,11.0,80,0.00,,,0.00,Wunderground v.1.15,2013-03-23 11:30:00,
2013-03-23 06:31:00,58.0,51.9,29.58,NE,47,5.0,11.0,80,0.00,,,0.00,Wunderground v.1.15,2013-03-23 11:31:00,
2013-03-23 06:35:00,57.8,51.3,29.58,NNE,20,4.0,11.0,79,0.00,,,0.00,Wunderground v.1.15,2013-03-23 11:35:00,
2013-03-23 06:37:00,57.6,51.1,29.58,NE,54,4.0,11.0,79,0.00,,,0.00,Wunderground v.1.15,2013-03-23 11:37:00,
2013-03-23 06:40:00,57.6,51.1,29.58,NNE,30,5.0,10.0,79,0.00,,,0.00,Wunderground v.1.15,2013-03-23 11:40:00,
2013-03-23 06:41:00,57.6,51.1,29.58,NNE,23,6.0,10.0,79,0.00,,,0.00,Wunderground v.1.15,2013-03-23 11:41:00,
2013-03-23 06:42:00,57.6,51.1,29.58,NE,54,6.0,10.0,79,0.00,,,0.00,Wunderground v.1.15,2013-03-23 11:42:00,
2013-03-23 06:46:00,57.6,51.5,29.58,NNE,30,6.0,10.0,80,0.00,,,0.00,Wunderground v.1.15,2013-03-23 11:46:00,
2013-03-23 06:47:00,57.6,51.5,29.58,NE,35,6.0,10.0,80,0.00,,,0.00,Wunderground v.1.15,2013-03-23 11:47:00,
2013-03-23 06:48:00,57.6,51.5,29.58,NE,40,6.0,10.0,80,0.00,,,0.00,Wunderground v.1.15,2013-03-23 11:48:00,
2013-03-23 06:50:00,57.6,51.5,29.58,NNE,25,6.0,6.0,80,0.00,,,0.00,Wunderground v.1.15,2013-03-23 11:50:00,
2013-03-23 06:52:00,57.6,51.8,29.58,NE,49,5.0,13.0,81,0.00,,,0.00,Wunderground v.1.15,2013-03-23 11:52:00,
2013-03-23 06:54:00,57.6,51.8,29.58,NE,47,5.0,13.0,81,0.00,,,0.00,Wunderground v.1.15,2013-03-23 11:54:00,
2013-03-23 06:58:00,57.5,51.7,29.58,NE,47,5.0,13.0,81,0.00,,,0.00,Wunderground v.1.15,2013-03-23 11:58:00,
2013-03-23 07:00:00,57.5,51.7,29.58,NE,47,5.0,11.0,81,0.00,,,0.00,Wunderground v.1.15,2013-03-23 12:00:00,
2013-03-23 07:03:00,57.5,51.7,29.60,NE,45,4.0,11.0,81,0.00,,,0.00,Wunderground v.1.15,2013-03-23 12:03:00,
2013-03-23 07:04:00,57.5,51.7,29.60,NE,45,4.0,11.0,81,0.00,,,0.00,Wunderground v.1.15,2013-03-23 12:04:00,
2013-03-23 07:07:00,57.5,51.7,29.60,North,359,4.0,11.0,81,0.00,,,0.00,Wunderground v.1.15,2013-03-23 12:07:00,
2013-03-23 07:08:00,57.5,51.7,29.60,NE,37,3.0,11.0,81,0.00,,,0.00,Wunderground v.1.15,2013-03-23 12:08:00,
2013-03-23 07:10:00,57.5,51.7,29.60,NE,40,4.0,11.0,81,0.00,,,0.00,Wunderground v.1.15,2013-03-23 12:10:00,
2013-03-23 07:12:00,57.5,51.7,29.60,North,8,4.0,11.0,81,0.00,,,0.00,Wunderground v.1.15,2013-03-23 12:12:00,
2013-03-23 07:14:00,57.5,51.7,29.60,NE,37,4.0,11.0,81,0.00,,,0.00,Wunderground v.1.15,2013-03-23 12:14:00,
2013-03-23 07:15:00,57.5,51.7,29.60,NE,38,4.0,11.0,81,0.00,,,0.00,Wunderground v.1.15,2013-03-23 12:15:00,
2013-03-23 07:16:00,57.5,51.7,29.60,NE,40,4.0,11.0,81,0.00,,,0.00,Wunderground v.1.15,2013-03-23 12:16:00,
2013-03-23 07:18:00,57.5,51.7,29.60,NE,35,4.0,11.0,81,0.00,,,0.00,Wunderground v.1.15,2013-03-23 12:18:00,
2013-03-23 07:20:00,57.5,51.7,29.60,NE,48,3.0,11.0,81,0.00,,,0.00,Wunderground v.1.15,2013-03-23 12:20:00,
2013-03-23 07:22:00,57.5,51.7,29.60,North,3,4.0,8.0,81,0.00,,,0.00,Wunderground v.1.15,2013-03-23 12:22:00,
2013-03-23 07:25:00,57.5,51.7,29.60,NNE,14,4.0,8.0,81,0.00,,,0.00,Wunderground v.1.15,2013-03-23 12:25:00,
2013-03-23 07:27:00,57.5,52.0,29.60,NNE,14,4.0,8.0,82,0.00,,,0.00,Wunderground v.1.15,2013-03-23 12:27:00,
2013-03-23 07:30:00,57.5,52.0,29.60,NE,34,4.0,8.0,82,0.00,,,0.00,Wunderground v.1.15,2013-03-23 12:30:00,
2013-03-23 07:34:00,57.5,52.0,29.60,NNE,28,4.0,8.0,82,0.00,,,0.00,Wunderground v.1.15,2013-03-23 12:34:00,
2013-03-23 07:35:00,57.5,52.0,29.60,NE,51,5.0,8.0,82,0.00,,,0.00,Wunderground v.1.15,2013-03-23 12:35:00,
2013-03-23 07:36:00,57.5,52.0,29.60,NNE,23,5.0,8.0,82,0.00,,,0.00,Wunderground v.1.15,2013-03-23 12:36:00,
2013-03-23 07:38:00,57.5,52.0,29.60,NE,48,5.0,8.0,82,0.00,,,0.00,Wunderground v.1.15,2013-03-23 12:38:00,
2013-03-23 07:40:00,57.5,52.0,29.60,North,0,4.0,11.0,82,0.00,,,0.00,Wunderground v.1.15,2013-03-23 12:40:00,
2013-03-23 07:42:00,57.5,52.0,29.60,ENE,62,5.0,11.0,82,0.00,,,0.00,Wunderground v.1.15,2013-03-23 12:42:00,
2013-03-23 07:45:00,57.5,52.0,29.60,NNE,23,4.0,11.0,82,0.00,,,0.00,Wunderground v.1.15,2013-03-23 12:45:00,
2013-03-23 07:46:00,57.5,52.0,29.60,North,4,4.0,11.0,82,0.00,,,0.00,Wunderground v.1.15,2013-03-23 12:46:00,
2013-03-23 07:47:00,57.5,52.0,29.60,NNE,24,4.0,11.0,82,0.00,,,0.00,Wunderground v.1.15,2013-03-23 12:47:00,
2013-03-23 07:50:00,57.5,52.0,29.60,NNE,28,4.0,8.0,82,0.00,,,0.00,Wunderground v.1.15,2013-03-23 12:50:00,
2013-03-23 07:51:00,57.5,52.0,29.60,NNE,21,4.0,8.0,82,0.00,,,0.00,Wunderground v.1.15,2013-03-23 12:51:00,
2013-03-23 07:56:00,57.3,51.9,29.60,NNE,16,5.0,8.0,82,0.00,,,0.00,Wunderground v.1.15,2013-03-23 12:56:00,
2013-03-23 07:58:00,57.3,51.9,29.60,NNE,20,5.0,8.0,82,0.00,,,0.00,Wunderground v.1.15,2013-03-23 12:58:00,
2013-03-23 07:59:00,57.3,51.9,29.60,NNE,31,5.0,8.0,82,0.00,,,0.00,Wunderground v.1.15,2013-03-23 12:59:00,
2013-03-23 08:00:00,57.3,51.9,29.60,NNE,32,5.0,8.0,82,0.00,,,0.00,Wunderground v.1.15,2013-03-23 13:00:00,
2013-03-23 08:05:00,57.3,52.2,29.62,NE,42,4.0,8.0,83,0.00,,,0.00,Wunderground v.1.15,2013-03-23 13:05:00,
2013-03-23 08:06:00,57.3,52.2,29.62,NE,42,4.0,8.0,83,0.00,,,0.00,Wunderground v.1.15,2013-03-23 13:06:00,
2013-03-23 08:08:00,57.3,52.2,29.62,NE,42,4.0,8.0,83,0.00,,,0.00,Wunderground v.1.15,2013-03-23 13:08:00,
2013-03-23 08:10:00,57.3,52.2,29.62,North,0,4.0,6.0,83,0.00,,,0.00,Wunderground v.1.15,2013-03-23 13:10:00,
2013-03-23 08:12:00,57.2,52.1,29.62,North,11,4.0,10.0,83,0.00,,,0.00,Wunderground v.1.15,2013-03-23 13:12:00,
2013-03-23 08:15:00,57.2,52.1,29.62,North,357,4.0,10.0,83,0.00,,,0.00,Wunderground v.1.15,2013-03-23 13:15:00,
2013-03-23 08:17:00,57.2,52.1,29.62,North,10,4.0,10.0,83,0.00,,,0.00,Wunderground v.1.15,2013-03-23 13:17:00,
2013-03-23 08:18:00,57.2,52.1,29.62,North,359,4.0,10.0,83,0.00,,,0.00,Wunderground v.1.15,2013-03-23 13:18:00,
2013-03-23 08:20:00,57.2,52.1,29.62,North,0,4.0,7.0,83,0.00,,,0.00,Wunderground v.1.15,2013-03-23 13:20:00,
2013-03-23 08:23:00,57.0,51.9,29.62,NNE,25,5.0,7.0,83,0.00,,,0.00,Wunderground v.1.15,2013-03-23 13:23:00,
2013-03-23 08:24:00,57.0,51.9,29.62,NE,45,5.0,7.0,83,0.00,,,0.00,Wunderground v.1.15,2013-03-23 13:24:00,
2013-03-23 08:25:00,57.0,51.9,29.62,NNE,14,5.0,7.0,83,0.00,,,0.00,Wunderground v.1.15,2013-03-23 13:25:00,
2013-03-23 08:28:00,57.0,51.9,29.62,NNE,27,5.0,7.0,83,0.00,,,0.00,Wunderground v.1.15,2013-03-23 13:28:00,
2013-03-23 08:30:00,57.0,51.9,29.62,North,0,5.0,5.0,83,0.00,,,0.00,Wunderground v.1.15,2013-03-23 13:30:00,
2013-03-23 08:32:00,57.0,51.9,29.62,North,0,4.0,8.0,83,0.00,,,0.00,Wunderground v.1.15,2013-03-23 13:32:00,
2013-03-23 08:34:00,57.0,51.9,29.62,North,0,4.0,8.0,83,0.00,,,0.00,Wunderground v.1.15,2013-03-23 13:34:00,
2013-03-23 08:35:00,57.0,51.9,29.62,NNE,20,4.0,8.0,83,0.00,,,0.00,Wunderground v.1.15,2013-03-23 13:35:00,
2013-03-23 08:40:00,57.0,51.9,29.62,North,11,3.0,8.0,83,0.00,,,0.00,Wunderground v.1.15,2013-03-23 13:40:00,
2013-03-23 08:41:00,57.0,51.9,29.62,North,11,3.0,8.0,83,0.00,,,0.00,Wunderground v.1.15,2013-03-23 13:41:00,
2013-03-23 08:42:00,57.0,51.9,29.62,North,6,3.0,8.0,83,0.00,,,0.00,Wunderground v.1.15,2013-03-23 13:42:00,
2013-03-23 08:43:00,57.0,51.6,29.62,North,7,3.0,8.0,82,0.00,,,0.00,Wunderground v.1.15,2013-03-23 13:43:00,
2013-03-23 08:45:00,57.0,51.6,29.62,North,0,4.0,8.0,82,0.00,,,0.00,Wunderground v.1.15,2013-03-23 13:45:00,
2013-03-23 08:46:00,57.0,51.9,29.64,North,6,4.0,8.0,83,0.00,,,0.00,Wunderground v.1.15,2013-03-23 13:46:00,
2013-03-23 08:48:00,57.0,51.9,29.64,NNE,20,4.0,8.0,83,0.00,,,0.00,Wunderground v.1.15,2013-03-23 13:48:00,
2013-03-23 08:49:00,57.0,51.9,29.64,North,10,4.0,8.0,83,0.00,,,0.00,Wunderground v.1.15,2013-03-23 13:49:00,
2013-03-23 08:53:00,57.0,51.9,29.64,NE,38,5.0,7.0,83,0.00,,,0.00,Wunderground v.1.15,2013-03-23 13:53:00,
2013-03-23 08:54:00,56.9,51.8,29.64,NE,37,5.0,7.0,83,0.00,,,0.00,Wunderground v.1.15,2013-03-23 13:54:00,
2013-03-23 08:55:00,56.9,51.8,29.64,NE,40,5.0,7.0,83,0.00,,,0.00,Wunderground v.1.15,2013-03-23 13:55:00,
2013-03-23 08:59:00,56.9,51.8,29.64,NE,38,4.0,7.0,83,0.00,,,0.00,Wunderground v.1.15,2013-03-23 13:59:00,
2013-03-23 09:01:00,57.0,51.9,29.65,North,0,4.0,10.0,83,0.00,,,0.00,Wunderground v.1.15,2013-03-23 14:01:00,
2013-03-23 09:02:00,57.0,51.9,29.65,North,0,4.0,10.0,83,0.00,,,0.00,Wunderground v.1.15,2013-03-23 14:02:00,
2013-03-23 09:07:00,56.9,51.8,29.65,North,0,4.0,10.0,83,0.00,,,0.00,Wunderground v.1.15,2013-03-23 14:07:00,
2013-03-23 09:08:00,56.9,51.8,29.65,North,359,4.0,10.0,83,0.00,,,0.00,Wunderground v.1.15,2013-03-23 14:08:00,
2013-03-23 09:09:00,56.9,51.5,29.65,North,357,4.0,10.0,82,0.00,,,0.00,Wunderground v.1.15,2013-03-23 14:09:00,
2013-03-23 09:10:00,56.7,51.6,29.65,NNW,342,4.0,8.0,83,0.00,,,0.00,Wunderground v.1.15,2013-03-23 14:10:00,
2013-03-23 09:16:00,56.7,51.3,29.66,NNW,328,5.0,8.0,82,0.00,,,0.00,Wunderground v.1.15,2013-03-23 14:16:00,
2013-03-23 09:17:00,56.7,51.3,29.66,NW,326,5.0,8.0,82,0.00,,,0.00,Wunderground v.1.15,2013-03-23 14:17:00,
2013-03-23 09:18:00,56.7,51.3,29.66,NW,311,5.0,8.0,82,0.00,,,0.00,Wunderground v.1.15,2013-03-23 14:18:00,
2013-03-23 09:20:00,56.7,51.3,29.66,NNW,340,5.0,8.0,82,0.00,,,0.00,Wunderground v.1.15,2013-03-23 14:20:00,
2013-03-23 09:22:00,56.6,51.2,29.66,NNW,342,5.0,8.0,82,0.00,,,0.00,Wunderground v.1.15,2013-03-23 14:22:00,
2013-03-23 09:24:00,56.6,51.2,29.66,North,1,5.0,8.0,82,0.00,,,0.00,Wunderground v.1.15,2013-03-23 14:24:00,
2013-03-23 09:29:00,56.6,51.2,29.66,NE,42,5.0,8.0,82,0.00,,,0.00,Wunderground v.1.15,2013-03-23 14:29:00,
2013-03-23 09:32:00,56.6,51.2,29.66,North,0,4.0,10.0,82,0.00,,,0.00,Wunderground v.1.15,2013-03-23 14:32:00,
2013-03-23 09:34:00,56.6,51.2,29.66,NE,35,4.0,10.0,82,0.00,,,0.00,Wunderground v.1.15,2013-03-23 14:34:00,
2013-03-23 09:35:00,56.6,51.2,29.66,North,349,4.0,10.0,82,0.00,,,0.00,Wunderground v.1.15,2013-03-23 14:35:00,
2013-03-23 09:42:00,56.5,51.1,29.66,North,6,5.0,11.0,82,0.00,,,0.00,Wunderground v.1.15,2013-03-23 14:42:00,
2013-03-23 09:43:00,56.5,51.1,29.66,North,359,6.0,11.0,82,0.00,,,0.00,Wunderground v.1.15,2013-03-23 14:43:00,
2013-03-23 09:45:00,56.3,50.9,29.66,NNE,23,6.0,11.0,82,0.00,,,0.00,Wunderground v.1.15,2013-03-23 14:45:00,
2013-03-23 09:46:00,56.3,50.9,29.67,NNE,32,6.0,11.0,82,0.00,,,0.00,Wunderground v.1.15,2013-03-23 14:46:00,
2013-03-23 09:51:00,55.9,50.8,29.67,NNE,20,7.0,7.0,83,0.00,,,0.00,Wunderground v.1.15,2013-03-23 14:51:00,
2013-03-23 09:52:00,55.9,50.8,29.67,NE,37,7.0,11.0,83,0.00,,,0.00,Wunderground v.1.15,2013-03-23 14:52:00,
2013-03-23 09:54:00,55.9,50.8,29.67,NE,38,7.0,11.0,83,0.00,,,0.00,Wunderground v.1.15,2013-03-23 14:54:00,
2013-03-23 09:57:00,55.6,50.5,29.67,NE,41,7.0,11.0,83,0.00,,,0.00,Wunderground v.1.15,2013-03-23 14:57:00,
2013-03-23 09:59:00,55.6,50.5,29.67,NNW,347,7.0,11.0,83,0.00,,,0.00,Wunderground v.1.15,2013-03-23 14:59:00,
2013-03-23 10:01:00,55.4,50.3,29.67,North,1,7.0,7.0,83,0.00,,,0.00,Wunderground v.1.15,2013-03-23 15:01:00,
2013-03-23 10:02:00,55.4,50.3,29.67,NE,34,7.0,13.0,83,0.00,,,0.00,Wunderground v.1.15,2013-03-23 15:02:00,
2013-03-23 10:05:00,55.1,50.4,29.67,NNE,27,7.0,13.0,84,0.00,,,0.00,Wunderground v.1.15,2013-03-23 15:05:00,
2013-03-23 10:06:00,55.1,50.4,29.67,NNE,21,7.0,13.0,84,0.00,,,0.00,Wunderground v.1.15,2013-03-23 15:06:00,
2013-03-23 10:11:00,55.1,50.7,29.67,NE,42,7.0,16.0,85,0.00,,,0.00,Wunderground v.1.15,2013-03-23 15:11:00,
2013-03-23 10:12:00,55.1,50.7,29.67,North,0,7.0,16.0,85,0.00,,,0.00,Wunderground v.1.15,2013-03-23 15:12:00,
2013-03-23 10:14:00,55.0,50.6,29.67,North,4,7.0,16.0,85,0.00,,,0.00,Wunderground v.1.15,2013-03-23 15:14:00,
2013-03-23 10:17:00,55.0,50.6,29.67,North,8,7.0,16.0,85,0.00,,,0.00,Wunderground v.1.15,2013-03-23 15:17:00,
2013-03-23 10:18:00,55.0,50.6,29.67,NNE,23,6.0,16.0,85,0.00,,,0.00,Wunderground v.1.15,2013-03-23 15:18:00,
2013-03-23 10:19:00,55.0,50.6,29.67,North,0,6.0,16.0,85,0.00,,,0.00,Wunderground v.1.15,2013-03-23 15:19:00,
2013-03-23 10:24:00,54.7,50.3,29.67,North,6,6.0,14.0,85,0.00,,,0.00,Wunderground v.1.15,2013-03-23 15:24:00,
2013-03-23 10:25:00,54.7,50.6,29.67,North,359,6.0,14.0,86,0.00,,,0.00,Wunderground v.1.15,2013-03-23 15:25:00,
2013-03-23 10:27:00,54.7,50.6,29.67,NNE,32,6.0,14.0,86,0.00,,,0.00,Wunderground v.1.15,2013-03-23 15:27:00,
2013-03-23 10:30:00,54.5,50.4,29.67,NNE,18,6.0,13.0,86,0.00,,,0.00,Wunderground v.1.15,2013-03-23 15:30:00,
2013-03-23 10:32:00,54.5,50.4,29.68,North,0,6.0,13.0,86,0.00,,,0.00,Wunderground v.1.15,2013-03-23 15:32:00,
2013-03-23 10:33:00,54.5,50.4,29.68,NNE,27,6.0,13.0,86,0.00,,,0.00,Wunderground v.1.15,2013-03-23 15:33:00,
2013-03-23 10:36:00,54.5,50.7,29.68,NNE,13,7.0,13.0,87,0.00,,,0.00,Wunderground v.1.15,2013-03-23 15:36:00,
2013-03-23 10:38:00,54.5,50.7,29.68,North,0,6.0,13.0,87,0.00,,,0.00,Wunderground v.1.15,2013-03-23 15:38:00,
2013-03-23 10:39:00,54.5,50.7,29.68,NE,37,6.0,13.0,87,0.00,,,0.00,Wunderground v.1.15,2013-03-23 15:39:00,
2013-03-23 10:43:00,54.5,51.0,29.68,North,11,7.0,13.0,88,0.00,,,0.00,Wunderground v.1.15,2013-03-23 15:43:00,
2013-03-23 10:46:00,54.7,51.5,29.66,NNE,28,6.0,13.0,89,0.00,,,0.00,Wunderground v.1.15,2013-03-23 15:46:00,
2013-03-23 10:48:00,54.8,51.6,29.66,NNE,30,6.0,13.0,89,0.00,,,0.00,Wunderground v.1.15,2013-03-23 15:48:00,
2013-03-23 10:50:00,55.3,52.4,29.66,North,357,6.0,13.0,90,0.00,,,0.00,Wunderground v.1.15,2013-03-23 15:50:00,
2013-03-23 10:52:00,55.4,52.5,29.66,NNE,18,6.0,13.0,90,0.00,,,0.00,Wunderground v.1.15,2013-03-23 15:52:00,
2013-03-23 10:55:00,55.1,51.9,29.66,North,0,7.0,13.0,89,0.00,,,0.00,Wunderground v.1.15,2013-03-23 15:55:00,
2013-03-23 10:57:00,55.1,51.9,29.66,NNE,23,7.0,13.0,89,0.00,,,0.00,Wunderground v.1.15,2013-03-23 15:57:00,
2013-03-23 10:59:00,55.1,51.9,29.66,North,0,7.0,13.0,89,0.00,,,0.00,Wunderground v.1.15,2013-03-23 15:59:00,
2013-03-23 11:02:00,55.3,52.1,29.67,ENE,61,7.0,14.0,89,0.00,,,0.00,Wunderground v.1.15,2013-03-23 16:02:00,
2013-03-23 11:03:00,55.3,52.1,29.67,NNE,30,7.0,14.0,89,0.00,,,0.00,Wunderground v.1.15,2013-03-23 16:03:00,
2013-03-23 11:05:00,55.3,52.1,29.67,NNE,27,6.0,14.0,89,0.00,,,0.00,Wunderground v.1.15,2013-03-23 16:05:00,
2013-03-23 11:08:00,55.6,52.7,29.67,North,3,6.0,14.0,90,0.00,,,0.00,Wunderground v.1.15,2013-03-23 16:08:00,
2013-03-23 11:09:00,55.6,52.4,29.67,North,7,5.0,14.0,89,0.00,,,0.00,Wunderground v.1.15,2013-03-23 16:09:00,
2013-03-23 11:11:00,55.7,52.5,29.67,NNE,31,5.0,5.0,89,0.00,,,0.00,Wunderground v.1.15,2013-03-23 16:11:00,
2013-03-23 11:15:00,56.2,53.0,29.67,North,7,3.0,13.0,89,0.00,,,0.00,Wunderground v.1.15,2013-03-23 16:15:00,
2013-03-23 11:16:00,56.3,53.1,29.67,North,7,4.0,13.0,89,0.00,,,0.00,Wunderground v.1.15,2013-03-23 16:16:00,
2013-03-23 11:17:00,56.3,53.1,29.67,North,7,3.0,13.0,89,0.00,,,0.00,Wunderground v.1.15,2013-03-23 16:17:00,
2013-03-23 11:20:00,56.7,53.5,29.67,NE,34,3.0,11.0,89,0.00,,,0.00,Wunderground v.1.15,2013-03-23 16:20:00,
2013-03-23 11:23:00,57.0,53.5,29.67,North,0,3.0,11.0,88,0.00,,,0.00,Wunderground v.1.15,2013-03-23 16:23:00,
2013-03-23 11:24:00,57.0,53.2,29.67,North,0,3.0,11.0,87,0.00,,,0.00,Wunderground v.1.15,2013-03-23 16:24:00,
2013-03-23 11:27:00,57.3,53.5,29.67,North,0,3.0,11.0,87,0.00,,,0.00,Wunderground v.1.15,2013-03-23 16:27:00,
2013-03-23 11:31:00,58.0,53.8,29.66,ENE,62,3.0,7.0,86,0.00,,,0.00,Wunderground v.1.15,2013-03-23 16:31:00,
2013-03-23 11:32:00,58.1,53.9,29.66,ENE,61,3.0,7.0,86,0.00,,,0.00,Wunderground v.1.15,2013-03-23 16:32:00,
2013-03-23 11:33:00,58.3,54.1,29.66,ENE,61,3.0,7.0,86,0.00,,,0.00,Wunderground v.1.15,2013-03-23 16:33:00,
2013-03-23 11:37:00,58.9,54.4,29.66,NE,52,3.0,7.0,85,0.00,,,0.00,Wunderground v.1.15,2013-03-23 16:37:00,
2013-03-23 11:38:00,59.0,54.2,29.66,East,97,3.0,7.0,84,0.00,,,0.00,Wunderground v.1.15,2013-03-23 16:38:00,
2013-03-23 11:39:00,59.0,54.2,29.66,East,96,3.0,7.0,84,0.00,,,0.00,Wunderground v.1.15,2013-03-23 16:39:00,
2013-03-23 11:40:00,59.5,54.3,29.66,East,96,2.0,7.0,83,0.00,,,0.00,Wunderground v.1.15,2013-03-23 16:40:00,
2013-03-23 11:42:00,59.8,54.6,29.66,East,96,2.0,7.0,83,0.00,,,0.00,Wunderground v.1.15,2013-03-23 16:42:00,
2013-03-23 11:45:00,60.1,54.2,29.66,NE,48,3.0,7.0,81,0.00,,,0.00,Wunderground v.1.15,2013-03-23 16:45:00,
2013-03-23 11:47:00,60.2,54.3,29.66,East,96,3.0,7.0,81,0.00,,,0.00,Wunderground v.1.15,2013-03-23 16:47:00,
2013-03-23 11:48:00,60.4,54.5,29.66,NE,34,3.0,7.0,81,0.00,,,0.00,Wunderground v.1.15,2013-03-23 16:48:00,
2013-03-23 11:50:00,60.7,54.5,29.66,NE,54,3.0,7.0,80,0.00,,,0.00,Wunderground v.1.15,2013-03-23 16:50:00,
2013-03-23 11:53:00,61.0,54.4,29.66,ENE,58,3.0,6.0,79,0.00,,,0.00,Wunderground v.1.15,2013-03-23 16:53:00,
2013-03-23 11:56:00,61.6,55.0,29.66,ENE,61,2.0,6.0,79,0.00,,,0.00,Wunderground v.1.15,2013-03-23 16:56:00,
2013-03-23 11:57:00,61.8,55.2,29.66,North,350,2.0,6.0,79,0.00,,,0.00,Wunderground v.1.15,2013-03-23 16:57:00,
2013-03-23 11:58:00,61.8,54.9,29.66,North,350,2.0,6.0,78,0.00,,,0.00,Wunderground v.1.15,2013-03-23 16:58:00,
2013-03-23 12:02:00,62.4,55.1,29.65,ENE,69,2.0,10.0,77,0.00,,,0.00,Wunderground v.1.15,2013-03-23 17:02:00,
2013-03-23 12:06:00,63.1,55.4,29.65,ENE,68,2.0,10.0,76,0.00,,,0.00,Wunderground v.1.15,2013-03-23 17:06:00,
2013-03-23 12:07:00,63.1,55.0,29.65,ENE,68,2.0,10.0,75,0.00,,,0.00,Wunderground v.1.15,2013-03-23 17:07:00,
2013-03-23 12:08:00,63.2,55.1,29.65,ENE,68,1.0,10.0,75,0.00,,,0.00,Wunderground v.1.15,2013-03-23 17:08:00,
2013-03-23 12:12:00,63.5,55.4,29.65,ENE,66,2.0,6.0,75,0.00,,,0.00,Wunderground v.1.15,2013-03-23 17:12:00,
2013-03-23 12:13:00,63.7,55.6,29.65,NE,52,2.0,6.0,75,0.00,,,0.00,Wunderground v.1.15,2013-03-23 17:13:00,
2013-03-23 12:16:00,64.2,55.7,29.64,NE,49,2.0,6.0,74,0.00,,,0.00,Wunderground v.1.15,2013-03-23 17:16:00,
2013-03-23 12:17:00,64.3,55.8,29.64,NNE,17,2.0,6.0,74,0.00,,,0.00,Wunderground v.1.15,2013-03-23 17:17:00,
2013-03-23 12:19:00,64.5,55.7,29.64,NNE,18,2.0,6.0,73,0.00,,,0.00,Wunderground v.1.15,2013-03-23 17:19:00,
2013-03-23 12:20:00,64.8,55.9,29.64,ESE,123,2.0,6.0,73,0.00,,,0.00,Wunderground v.1.15,2013-03-23 17:20:00,
2013-03-23 12:21:00,64.8,55.9,29.64,SE,127,2.0,6.0,73,0.00,,,0.00,Wunderground v.1.15,2013-03-23 17:21:00,
2013-03-23 12:26:00,65.5,56.2,29.64,SE,127,2.0,6.0,72,0.00,,,0.00,Wunderground v.1.15,2013-03-23 17:26:00,
2013-03-23 12:27:00,65.6,56.3,29.64,SE,127,2.0,6.0,72,0.00,,,0.00,Wunderground v.1.15,2013-03-23 17:27:00,
2013-03-23 12:29:00,65.8,56.1,29.64,East,95,2.0,6.0,71,0.00,,,0.00,Wunderground v.1.15,2013-03-23 17:29:00,
2013-03-23 12:31:00,66.0,56.7,29.64,East,90,2.0,7.0,72,0.00,,,0.00,Wunderground v.1.15,2013-03-23 17:31:00,
2013-03-23 12:33:00,66.1,56.4,29.64,East,82,2.0,7.0,71,0.00,,,0.00,Wunderground v.1.15,2013-03-23 17:33:00,
2013-03-23 12:34:00,66.1,56.4,29.64,East,82,2.0,7.0,71,0.00,,,0.00,Wunderground v.1.15,2013-03-23 17:34:00,
2013-03-23 12:35:00,66.3,56.6,29.64,East,82,2.0,7.0,71,0.00,,,0.00,Wunderground v.1.15,2013-03-23 17:35:00,
2013-03-23 12:39:00,66.4,56.7,29.64,East,80,1.0,7.0,71,0.00,,,0.00,Wunderground v.1.15,2013-03-23 17:39:00,
2013-03-23 12:40:00,66.4,56.7,29.64,East,80,1.0,7.0,71,0.00,,,0.00,Wunderground v.1.15,2013-03-23 17:40:00,
2013-03-23 12:42:00,66.4,56.7,29.64,East,80,1.0,5.0,71,0.00,,,0.00,Wunderground v.1.15,2013-03-23 17:42:00,
2013-03-23 12:45:00,66.9,57.2,29.64,East,80,0.0,5.0,71,0.00,,,0.00,Wunderground v.1.15,2013-03-23 17:45:00,
2013-03-23 12:47:00,67.1,57.4,29.63,East,80,0.0,5.0,71,0.00,,,0.00,Wunderground v.1.15,2013-03-23 17:47:00,
2013-03-23 12:48:00,67.1,57.8,29.63,East,80,0.0,5.0,72,0.00,,,0.00,Wunderground v.1.15,2013-03-23 17:48:00,
2013-03-23 12:49:00,67.3,58.0,29.63,East,80,0.0,5.0,72,0.00,,,0.00,Wunderground v.1.15,2013-03-23 17:49:00,
2013-03-23 12:52:00,67.4,57.7,29.63,East,80,0.0,5.0,71,0.00,,,0.00,Wunderground v.1.15,2013-03-23 17:52:00,
2013-03-23 12:54:00,67.6,57.5,29.63,East,80,0.0,5.0,70,0.00,,,0.00,Wunderground v.1.15,2013-03-23 17:54:00,
2013-03-23 12:57:00,67.6,57.1,29.63,East,80,1.0,5.0,69,0.00,,,0.00,Wunderground v.1.15,2013-03-23 17:57:00,
2013-03-23 12:59:00,67.6,57.1,29.63,East,80,1.0,5.0,69,0.00,,,0.00,Wunderground v.1.15,2013-03-23 17:59:00,
2013-03-23 13:00:00,67.8,57.7,29.63,East,80,1.0,3.0,70,0.00,,,0.00,Wunderground v.1.15,2013-03-23 18:00:00,
2013-03-23 13:02:00,68.1,57.9,29.62,East,79,1.0,3.0,70,0.00,,,0.00,Wunderground v.1.15,2013-03-23 18:02:00,
2013-03-23 13:08:00,68.8,58.2,29.62,ENE,76,1.0,3.0,69,0.00,,,0.00,Wunderground v.1.15,2013-03-23 18:08:00,
2013-03-23 13:11:00,69.1,58.5,29.62,ENE,76,1.0,5.0,69,0.00,,,0.00,Wunderground v.1.15,2013-03-23 18:11:00,
2013-03-23 13:12:00,69.3,58.3,29.62,ENE,76,0.0,5.0,68,0.00,,,0.00,Wunderground v.1.15,2013-03-23 18:12:00,
2013-03-23 13:14:00,69.8,58.3,29.62,ENE,76,0.0,5.0,67,0.00,,,0.00,Wunderground v.1.15,2013-03-23 18:14:00,
2013-03-23 13:15:00,69.9,58.4,29.62,ENE,76,0.0,5.0,67,0.00,,,0.00,Wunderground v.1.15,2013-03-23 18:15:00,
2013-03-23 13:19:00,70.3,58.0,29.62,ENE,76,0.0,5.0,65,0.00,,,0.00,Wunderground v.1.15,2013-03-23 18:19:00,
2013-03-23 13:20:00,70.4,58.1,29.62,ENE,76,0.0,3.0,65,0.00,,,0.00,Wunderground v.1.15,2013-03-23 18:20:00,
2013-03-23 13:21:00,70.4,58.1,29.62,ENE,76,0.0,3.0,65,0.00,,,0.00,Wunderground v.1.15,2013-03-23 18:21:00,
2013-03-23 13:24:00,70.8,58.4,29.62,ENE,76,1.0,3.0,65,0.00,,,0.00,Wunderground v.1.15,2013-03-23 18:24:00,
2013-03-23 13:25:00,70.9,58.5,29.62,ENE,76,1.0,3.0,65,0.00,,,0.00,Wunderground v.1.15,2013-03-23 18:25:00,
2013-03-23 13:27:00,71.1,58.7,29.62,ENE,76,1.0,3.0,65,0.00,,,0.00,Wunderground v.1.15,2013-03-23 18:27:00,
2013-03-23 13:29:00,71.1,58.7,29.62,ENE,76,1.0,3.0,65,0.00,,,0.00,Wunderground v.1.15,2013-03-23 18:29:00,
2013-03-23 13:31:00,71.1,58.7,29.61,ENE,76,1.0,3.0,65,0.00,,,0.00,Wunderground v.1.15,2013-03-23 18:31:00,
2013-03-23 13:33:00,71.3,58.9,29.61,NW,326,1.0,3.0,65,0.00,,,0.00,Wunderground v.1.15,2013-03-23 18:33:00,
2013-03-23 13:36:00,71.3,58.9,29.61,NNW,328,1.0,3.0,65,0.00,,,0.00,Wunderground v.1.15,2013-03-23 18:36:00,
2013-03-23 13:38:00,71.3,58.9,29.61,NW,326,1.0,3.0,65,0.00,,,0.00,Wunderground v.1.15,2013-03-23 18:38:00,
2013-03-23 13:40:00,71.5,59.5,29.61,NW,326,1.0,4.0,66,0.00,,,0.00,Wunderground v.1.15,2013-03-23 18:40:00,
2013-03-23 13:43:00,71.5,59.5,29.61,NW,326,1.0,4.0,66,0.00,,,0.00,Wunderground v.1.15,2013-03-23 18:43:00,
2013-03-23 13:45:00,71.8,59.8,29.61,NW,326,1.0,4.0,66,0.00,,,0.00,Wunderground v.1.15,2013-03-23 18:45:00,
2013-03-23 13:50:00,72.8,59.9,29.59,NW,320,0.0,6.0,64,0.00,,,0.00,Wunderground v.1.15,2013-03-23 18:50:00,
2013-03-23 13:51:00,72.8,59.9,29.59,NW,320,0.0,6.0,64,0.00,,,0.00,Wunderground v.1.15,2013-03-23 18:51:00,
2013-03-23 13:53:00,72.8,60.3,29.59,NW,319,1.0,6.0,65,0.00,,,0.00,Wunderground v.1.15,2013-03-23 18:53:00,
2013-03-23 13:58:00,73.5,60.1,29.59,NW,319,1.0,6.0,63,0.00,,,0.00,Wunderground v.1.15,2013-03-23 18:58:00,
2013-03-23 13:59:00,73.7,59.9,29.59,NW,319,1.0,6.0,62,0.00,,,0.00,Wunderground v.1.15,2013-03-23 18:59:00,
2013-03-23 14:02:00,74.0,60.2,29.58,NW,326,0.0,5.0,62,0.00,,,0.00,Wunderground v.1.15,2013-03-23 19:02:00,
2013-03-23 14:04:00,74.2,59.9,29.58,NW,326,0.0,5.0,61,0.00,,,0.00,Wunderground v.1.15,2013-03-23 19:04:00,
2013-03-23 14:06:00,74.2,59.9,29.58,NW,320,0.0,5.0,61,0.00,,,0.00,Wunderground v.1.15,2013-03-23 19:06:00,
2013-03-23 14:07:00,74.4,60.1,29.58,NW,320,0.0,5.0,61,0.00,,,0.00,Wunderground v.1.15,2013-03-23 19:07:00,
2013-03-23 14:09:00,74.2,59.9,29.58,East,85,1.0,5.0,61,0.00,,,0.00,Wunderground v.1.15,2013-03-23 19:09:00,
2013-03-23 14:12:00,74.6,60.3,29.58,SE,128,1.0,3.0,61,0.00,,,0.00,Wunderground v.1.15,2013-03-23 19:12:00,
2013-03-23 14:14:00,74.9,61.0,29.58,SSW,203,1.0,3.0,62,0.00,,,0.00,Wunderground v.1.15,2013-03-23 19:14:00,
2013-03-23 14:15:00,75.1,60.7,29.58,SSW,198,1.0,3.0,61,0.00,,,0.00,Wunderground v.1.15,2013-03-23 19:15:00,
2013-03-23 14:17:00,75.3,60.9,29.57,SSW,198,1.0,3.0,61,0.00,,,0.00,Wunderground v.1.15,2013-03-23 19:17:00,
2013-03-23 14:20:00,75.8,61.4,29.57,SSW,198,1.0,1.0,61,0.00,,,0.00,Wunderground v.1.15,2013-03-23 19:20:00,
2013-03-23 14:22:00,76.1,61.2,29.57,SSW,213,1.0,6.0,60,0.00,,,0.00,Wunderground v.1.15,2013-03-23 19:22:00,
2013-03-23 14:23:00,76.3,60.9,29.57,SW,216,1.0,6.0,59,0.00,,,0.00,Wunderground v.1.15,2013-03-23 19:23:00,
2013-03-23 14:24:00,76.5,61.1,29.57,SW,219,1.0,6.0,59,0.00,,,0.00,Wunderground v.1.15,2013-03-23 19:24:00,
2013-03-23 14:27:00,76.5,61.6,29.57,SSE,147,2.0,6.0,60,0.00,,,0.00,Wunderground v.1.15,2013-03-23 19:27:00,
2013-03-23 14:29:00,76.3,61.4,29.57,SSE,160,2.0,6.0,60,0.00,,,0.00,Wunderground v.1.15,2013-03-23 19:29:00,
2013-03-23 14:33:00,76.5,62.0,29.55,WSW,241,3.0,8.0,61,0.00,,,0.00,Wunderground v.1.15,2013-03-23 19:33:00,
2013-03-23 14:34:00,76.7,61.8,29.55,SW,224,3.0,8.0,60,0.00,,,0.00,Wunderground v.1.15,2013-03-23 19:34:00,
2013-03-23 14:35:00,76.5,62.0,29.55,SSW,213,3.0,8.0,61,0.00,,,0.00,Wunderground v.1.15,2013-03-23 19:35:00,
2013-03-23 14:38:00,76.5,62.5,29.55,SW,223,4.0,8.0,62,0.00,,,0.00,Wunderground v.1.15,2013-03-23 19:38:00,
2013-03-23 14:40:00,76.5,62.0,29.55,South,185,4.0,4.0,61,0.00,,,0.00,Wunderground v.1.15,2013-03-23 19:40:00,
2013-03-23 14:41:00,76.5,62.0,29.55,South,186,4.0,5.0,61,0.00,,,0.00,Wunderground v.1.15,2013-03-23 19:41:00,
2013-03-23 14:42:00,76.5,62.0,29.55,SSW,200,4.0,8.0,61,0.00,,,0.00,Wunderground v.1.15,2013-03-23 19:42:00,
2013-03-23 14:47:00,76.3,61.9,29.55,South,178,3.0,8.0,61,0.00,,,0.00,Wunderground v.1.15,2013-03-23 19:47:00,
2013-03-23 14:48:00,76.3,61.9,29.55,South,182,3.0,8.0,61,0.00,,,0.00,Wunderground v.1.15,2013-03-23 19:48:00,
2013-03-23 14:50:00,76.7,61.8,29.55,WNW,298,3.0,10.0,60,0.00,,,0.00,Wunderground v.1.15,2013-03-23 19:50:00,
2013-03-23 14:53:00,76.5,61.6,29.55,West,271,3.0,10.0,60,0.00,,,0.00,Wunderground v.1.15,2013-03-23 19:53:00,
2013-03-23 14:56:00,76.5,61.1,29.55,West,270,4.0,10.0,59,0.00,,,0.00,Wunderground v.1.15,2013-03-23 19:56:00,
2013-03-23 14:57:00,76.3,60.9,29.55,West,275,4.0,10.0,59,0.00,,,0.00,Wunderground v.1.15,2013-03-23 19:57:00,
2013-03-23 14:59:00,76.3,60.9,29.55,West,270,5.0,10.0,59,0.00,,,0.00,Wunderground v.1.15,2013-03-23 19:59:00,
2013-03-23 15:03:00,76.0,61.1,29.54,West,275,4.0,8.0,60,0.00,,,0.00,Wunderground v.1.15,2013-03-23 20:03:00,
2013-03-23 15:04:00,76.0,61.1,29.54,West,274,4.0,8.0,60,0.00,,,0.00,Wunderground v.1.15,2013-03-23 20:04:00,
2013-03-23 15:07:00,76.3,61.4,29.54,West,274,3.0,8.0,60,0.00,,,0.00,Wunderground v.1.15,2013-03-23 20:07:00,
2013-03-23 15:11:00,76.8,60.9,29.54,SSE,152,1.0,1.0,58,0.00,,,0.00,Wunderground v.1.15,2013-03-23 20:11:00,
2013-03-23 15:12:00,77.0,61.1,29.54,SSE,155,1.0,11.0,58,0.00,,,0.00,Wunderground v.1.15,2013-03-23 20:12:00,
2013-03-23 15:13:00,77.2,61.3,29.54,WSW,250,1.0,11.0,58,0.00,,,0.00,Wunderground v.1.15,2013-03-23 20:13:00,
2013-03-23 15:16:00,77.6,61.2,29.52,West,271,1.0,11.0,57,0.00,,,0.00,Wunderground v.1.15,2013-03-23 20:16:00,
2013-03-23 15:19:00,78.1,61.1,29.52,West,271,1.0,11.0,56,0.00,,,0.00,Wunderground v.1.15,2013-03-23 20:19:00,
2013-03-23 15:20:00,78.3,61.3,29.52,West,263,1.0,11.0,56,0.00,,,0.00,Wunderground v.1.15,2013-03-23 20:20:00,
2013-03-23 15:22:00,78.6,61.1,29.52,SSW,196,1.0,6.0,55,0.00,,,0.00,Wunderground v.1.15,2013-03-23 20:22:00,
2013-03-23 15:25:00,79.2,61.1,29.52,SSW,210,1.0,6.0,54,0.00,,,0.00,Wunderground v.1.15,2013-03-23 20:25:00,
2013-03-23 15:26:00,79.4,61.3,29.52,SW,220,1.0,6.0,54,0.00,,,0.00,Wunderground v.1.15,2013-03-23 20:26:00,
2013-03-23 15:28:00,79.6,62.0,29.52,SW,227,2.0,6.0,55,0.00,,,0.00,Wunderground v.1.15,2013-03-23 20:28:00,
2013-03-23 15:31:00,79.6,61.0,29.51,WNW,296,3.0,7.0,53,0.00,,,0.00,Wunderground v.1.15,2013-03-23 20:31:00,
2013-03-23 15:34:00,79.6,61.5,29.51,WNW,298,2.0,7.0,54,0.00,,,0.00,Wunderground v.1.15,2013-03-23 20:34:00,
2013-03-23 15:35:00,79.6,61.5,29.51,WNW,298,2.0,7.0,54,0.00,,,0.00,Wunderground v.1.15,2013-03-23 20:35:00,
2013-03-23 15:37:00,79.6,61.5,29.51,WNW,296,1.0,7.0,54,0.00,,,0.00,Wunderground v.1.15,2013-03-23 20:37:00,
2013-03-23 15:38:00,79.6,62.0,29.51,WNW,299,2.0,7.0,55,0.00,,,0.00,Wunderground v.1.15,2013-03-23 20:38:00,
2013-03-23 15:40:00,79.2,61.6,29.51,WNW,295,2.0,7.0,55,0.00,,,0.00,Wunderground v.1.15,2013-03-23 20:40:00,
2013-03-23 15:43:00,78.8,61.3,29.51,WNW,296,3.0,6.0,55,0.00,,,0.00,Wunderground v.1.15,2013-03-23 20:43:00,
2013-03-23 15:47:00,79.0,61.5,29.50,SE,144,3.0,6.0,55,0.00,,,0.00,Wunderground v.1.15,2013-03-23 20:47:00,
2013-03-23 15:49:00,78.8,60.7,29.50,SSE,152,3.0,6.0,54,0.00,,,0.00,Wunderground v.1.15,2013-03-23 20:49:00,
2013-03-23 15:50:00,78.8,61.3,29.50,SSE,147,2.0,7.0,55,0.00,,,0.00,Wunderground v.1.15,2013-03-23 20:50:00,
2013-03-23 15:54:00,78.8,61.3,29.50,SSE,151,2.0,7.0,55,0.00,,,0.00,Wunderground v.1.15,2013-03-23 20:54:00,
2013-03-23 15:55:00,78.8,60.7,29.50,SSE,148,2.0,7.0,54,0.00,,,0.00,Wunderground v.1.15,2013-03-23 20:55:00,
2013-03-23 15:56:00,78.8,61.3,29.50,SSE,147,3.0,7.0,55,0.00,,,0.00,Wunderground v.1.15,2013-03-23 20:56:00,
2013-03-23 15:57:00,79.0,61.5,29.50,SSE,147,3.0,7.0,55,0.00,,,0.00,Wunderground v.1.15,2013-03-23 20:57:00,
2013-03-23 15:59:00,78.8,61.3,29.50,SE,131,3.0,7.0,55,0.00,,,0.00,Wunderground v.1.15,2013-03-23 20:59:00,
2013-03-23 16:02:00,78.8,60.7,29.50,SE,131,4.0,8.0,54,0.00,,,0.00,Wunderground v.1.15,2013-03-23 21:02:00,
2013-03-23 16:04:00,79.0,60.9,29.50,ESE,113,3.0,8.0,54,0.00,,,0.00,Wunderground v.1.15,2013-03-23 21:04:00,
2013-03-23 16:08:00,79.0,60.9,29.50,SE,144,2.0,8.0,54,0.00,,,0.00,Wunderground v.1.15,2013-03-23 21:08:00,
2013-03-23 16:09:00,79.0,60.9,29.50,SE,128,2.0,8.0,54,0.00,,,0.00,Wunderground v.1.15,2013-03-23 21:09:00,
2013-03-23 16:10:00,79.0,60.9,29.50,SE,128,2.0,2.0,54,0.00,,,0.00,Wunderground v.1.15,2013-03-23 21:10:00,
2013-03-23 16:13:00,79.2,61.1,29.50,SE,128,2.0,10.0,54,0.00,,,0.00,Wunderground v.1.15,2013-03-23 21:13:00,
2013-03-23 16:14:00,79.4,60.8,29.50,SE,128,1.0,10.0,53,0.00,,,0.00,Wunderground v.1.15,2013-03-23 21:14:00,
2013-03-23 16:17:00,79.6,60.4,29.50,SE,134,1.0,10.0,52,0.00,,,0.00,Wunderground v.1.15,2013-03-23 21:17:00,
2013-03-23 16:21:00,79.4,60.8,29.50,SE,143,2.0,6.0,53,0.00,,,0.00,Wunderground v.1.15,2013-03-23 21:21:00,
2013-03-23 16:23:00,79.4,61.3,29.50,SSE,147,2.0,8.0,54,0.00,,,0.00,Wunderground v.1.15,2013-03-23 21:23:00,
2013-03-23 16:24:00,79.6,61.5,29.50,SE,136,3.0,8.0,54,0.00,,,0.00,Wunderground v.1.15,2013-03-23 21:24:00,
2013-03-23 16:28:00,80.3,61.1,29.50,South,178,3.0,8.0,52,0.00,,,0.00,Wunderground v.1.15,2013-03-23 21:28:00,
2013-03-23 16:29:00,80.3,61.1,29.50,SSE,165,3.0,8.0,52,0.00,,,0.00,Wunderground v.1.15,2013-03-23 21:29:00,
2013-03-23 16:31:00,80.3,61.1,29.49,South,182,3.0,8.0,52,0.00,,,0.00,Wunderground v.1.15,2013-03-23 21:31:00,
2013-03-23 16:35:00,80.1,60.9,29.49,SSW,200,2.0,8.0,52,0.00,,,0.00,Wunderground v.1.15,2013-03-23 21:35:00,
2013-03-23 16:37:00,80.3,61.1,29.49,SSW,200,2.0,8.0,52,0.00,,,0.00,Wunderground v.1.15,2013-03-23 21:37:00,
2013-03-23 16:38:00,80.5,61.3,29.49,SSW,200,2.0,8.0,52,0.00,,,0.00,Wunderground v.1.15,2013-03-23 21:38:00,
2013-03-23 16:40:00,81.1,61.3,29.49,SSW,200,2.0,10.0,51,0.00,,,0.00,Wunderground v.1.15,2013-03-23 21:40:00,
2013-03-23 16:41:00,81.1,61.3,29.49,SSW,200,1.0,1.0,51,0.00,,,0.00,Wunderground v.1.15,2013-03-23 21:41:00,
2013-03-23 16:43:00,81.4,61.5,29.49,SSW,200,1.0,10.0,51,0.00,,,0.00,Wunderground v.1.15,2013-03-23 21:43:00,
2013-03-23 16:44:00,81.6,61.2,29.49,SSW,200,0.0,10.0,50,0.00,,,0.00,Wunderground v.1.15,2013-03-23 21:44:00,
2013-03-23 16:47:00,81.8,60.8,29.48,SSE,158,1.0,10.0,49,0.00,,,0.00,Wunderground v.1.15,2013-03-23 21:47:00,
2013-03-23 16:49:00,81.6,61.2,29.48,SSE,157,2.0,10.0,50,0.00,,,0.00,Wunderground v.1.15,2013-03-23 21:49:00,
2013-03-23 16:50:00,81.4,61.5,29.48,SSW,195,2.0,10.0,51,0.00,,,0.00,Wunderground v.1.15,2013-03-23 21:50:00,
2013-03-23 16:52:00,81.6,61.7,29.48,South,186,2.0,6.0,51,0.00,,,0.00,Wunderground v.1.15,2013-03-23 21:52:00,
2013-03-23 16:56:00,81.4,61.5,29.48,SSW,196,3.0,6.0,51,0.00,,,0.00,Wunderground v.1.15,2013-03-23 21:56:00,
2013-03-23 16:57:00,81.4,61.0,29.48,South,181,3.0,6.0,50,0.00,,,0.00,Wunderground v.1.15,2013-03-23 21:57:00,
2013-03-23 16:58:00,81.4,61.0,29.48,SSE,150,3.0,7.0,50,0.00,,,0.00,Wunderground v.1.15,2013-03-23 21:58:00,
2013-03-23 17:03:00,80.7,60.9,29.48,South,178,3.0,7.0,51,0.00,,,0.00,Wunderground v.1.15,2013-03-23 22:03:00,
2013-03-23 17:06:00,80.5,61.3,29.48,SSW,200,3.0,8.0,52,0.00,,,0.00,Wunderground v.1.15,2013-03-23 22:06:00,
2013-03-23 17:08:00,80.7,60.9,29.48,SSW,200,3.0,8.0,51,0.00,,,0.00,Wunderground v.1.15,2013-03-23 22:08:00,
2013-03-23 17:10:00,80.7,60.9,29.48,SSW,200,3.0,3.0,51,0.00,,,0.00,Wunderground v.1.15,2013-03-23 22:10:00,
2013-03-23 17:12:00,80.9,61.6,29.48,ESE,120,3.0,8.0,52,0.00,,,0.00,Wunderground v.1.15,2013-03-23 22:12:00,
2013-03-23 17:14:00,80.5,60.7,29.48,ESE,117,3.0,8.0,51,0.00,,,0.00,Wunderground v.1.15,2013-03-23 22:14:00,
2013-03-23 17:15:00,80.3,60.5,29.48,SE,130,3.0,8.0,51,0.00,,,0.00,Wunderground v.1.15,2013-03-23 22:15:00,
2013-03-23 17:16:00,80.1,60.9,29.48,SE,130,3.0,8.0,52,0.00,,,0.00,Wunderground v.1.15,2013-03-23 22:16:00,
2013-03-23 17:20:00,80.5,61.3,29.48,South,179,3.0,3.0,52,0.00,,,0.00,Wunderground v.1.15,2013-03-23 22:20:00,
2013-03-23 17:21:00,80.5,61.3,29.48,SE,136,3.0,8.0,52,0.00,,,0.00,Wunderground v.1.15,2013-03-23 22:21:00,
2013-03-23 17:23:00,80.3,61.1,29.48,SSE,160,3.0,10.0,52,0.00,,,0.00,Wunderground v.1.15,2013-03-23 22:23:00,
2013-03-23 17:24:00,80.3,61.1,29.48,SE,138,3.0,10.0,52,0.00,,,0.00,Wunderground v.1.15,2013-03-23 22:24:00,
2013-03-23 17:27:00,80.3,61.1,29.48,SE,140,2.0,10.0,52,0.00,,,0.00,Wunderground v.1.15,2013-03-23 22:27:00,
2013-03-23 17:29:00,80.3,60.5,29.48,SSW,210,3.0,11.0,51,0.00,,,0.00,Wunderground v.1.15,2013-03-23 22:29:00,
2013-03-23 17:30:00,80.5,60.7,29.48,South,186,3.0,9.0,51,0.00,,,0.00,Wunderground v.1.15,2013-03-23 22:30:00,
2013-03-23 17:33:00,80.7,60.9,29.48,SW,224,3.0,9.0,51,0.00,,,0.00,Wunderground v.1.15,2013-03-23 22:33:00,
2013-03-23 17:36:00,80.9,60.5,29.48,SSW,200,4.0,9.0,50,0.00,,,0.00,Wunderground v.1.15,2013-03-23 22:36:00,
2013-03-23 17:37:00,81.1,60.7,29.48,SSW,200,4.0,9.0,50,0.00,,,0.00,Wunderground v.1.15,2013-03-23 22:37:00,
2013-03-23 17:39:00,81.2,60.2,29.48,South,178,3.0,9.0,49,0.00,,,0.00,Wunderground v.1.15,2013-03-23 22:39:00,
2013-03-23 17:44:00,81.1,61.3,29.48,SSE,155,3.0,12.0,51,0.00,,,0.00,Wunderground v.1.15,2013-03-23 22:44:00,
2013-03-23 17:45:00,81.1,60.7,29.48,SSW,205,3.0,12.0,50,0.00,,,0.00,Wunderground v.1.15,2013-03-23 22:45:00,
2013-03-23 17:46:00,81.1,61.3,29.47,South,186,3.0,12.0,51,0.00,,,0.00,Wunderground v.1.15,2013-03-23 22:46:00,
2013-03-23 17:47:00,81.1,61.3,29.47,SSW,209,4.0,12.0,51,0.00,,,0.00,Wunderground v.1.15,2013-03-23 22:47:00,
2013-03-23 17:50:00,80.9,61.1,29.47,SSW,209,5.0,12.0,51,0.00,,,0.00,Wunderground v.1.15,2013-03-23 22:50:00,
2013-03-23 17:51:00,80.9,61.1,29.47,SSW,209,5.0,5.0,51,0.00,,,0.00,Wunderground v.1.15,2013-03-23 22:51:00,
2013-03-23 17:54:00,80.9,61.1,29.47,South,179,5.0,8.0,51,0.00,,,0.00,Wunderground v.1.15,2013-03-23 22:54:00,
2013-03-23 17:57:00,80.9,61.1,29.47,South,186,4.0,8.0,51,0.00,,,0.00,Wunderground v.1.15,2013-03-23 22:57:00,
2013-03-23 18:00:00,80.7,61.4,29.47,South,172,4.0,11.0,52,0.00,,,0.00,Wunderground v.1.15,2013-03-23 23:00:00,
2013-03-23 18:02:00,80.9,61.6,29.47,South,185,3.0,11.0,52,0.00,,,0.00,Wunderground v.1.15,2013-03-23 23:02:00,
2013-03-23 18:04:00,80.9,61.1,29.47,South,174,3.0,11.0,51,0.00,,,0.00,Wunderground v.1.15,2013-03-23 23:04:00,
2013-03-23 18:07:00,80.7,60.9,29.47,SSW,196,4.0,11.0,51,0.00,,,0.00,Wunderground v.1.15,2013-03-23 23:07:00,
2013-03-23 18:10:00,80.7,60.9,29.47,SSE,148,4.0,10.0,51,0.00,,,0.00,Wunderground v.1.15,2013-03-23 23:10:00,
2013-03-23 18:11:00,80.7,60.9,29.47,South,181,4.0,10.0,51,0.00,,,0.00,Wunderground v.1.15,2013-03-23 23:11:00,
2013-03-23 18:12:00,80.5,60.7,29.47,South,179,5.0,10.0,51,0.00,,,0.00,Wunderground v.1.15,2013-03-23 23:12:00,
2013-03-23 18:17:00,80.5,61.3,29.48,SSE,161,4.0,10.0,52,0.00,,,0.00,Wunderground v.1.15,2013-03-23 23:17:00,
2013-03-23 18:18:00,80.5,60.7,29.48,SSE,161,4.0,10.0,51,0.00,,,0.00,Wunderground v.1.15,2013-03-23 23:18:00,
2013-03-23 18:19:00,80.5,61.3,29.48,SSE,161,4.0,10.0,52,0.00,,,0.00,Wunderground v.1.15,2013-03-23 23:19:00,
2013-03-23 18:22:00,80.5,61.3,29.48,SSE,152,3.0,10.0,52,0.00,,,0.00,Wunderground v.1.15,2013-03-23 23:22:00,
2013-03-23 18:24:00,80.5,61.3,29.48,SE,145,3.0,10.0,52,0.00,,,0.00,Wunderground v.1.15,2013-03-23 23:24:00,
2013-03-23 18:27:00,80.3,61.1,29.48,SE,130,3.0,10.0,52,0.00,,,0.00,Wunderground v.1.15,2013-03-23 23:27:00,
2013-03-23 18:28:00,80.3,61.1,29.48,SE,130,3.0,10.0,52,0.00,,,0.00,Wunderground v.1.15,2013-03-23 23:28:00,
2013-03-23 18:29:00,80.3,61.1,29.48,SSE,154,3.0,10.0,52,0.00,,,0.00,Wunderground v.1.15,2013-03-23 23:29:00,
2013-03-23 18:33:00,80.1,60.9,29.48,South,176,3.0,8.0,52,0.00,,,0.00,Wunderground v.1.15,2013-03-23 23:33:00,
2013-03-23 18:38:00,79.9,60.7,29.48,SE,130,3.0,8.0,52,0.00,,,0.00,Wunderground v.1.15,2013-03-23 23:38:00,
2013-03-23 18:39:00,79.9,61.2,29.48,SE,140,3.0,8.0,53,0.00,,,0.00,Wunderground v.1.15,2013-03-23 23:39:00,
2013-03-23 18:41:00,79.9,60.7,29.48,SE,128,3.0,10.0,52,0.00,,,0.00,Wunderground v.1.15,2013-03-23 23:41:00,
2013-03-23 18:43:00,79.8,61.1,29.48,SE,141,3.0,10.0,53,0.00,,,0.00,Wunderground v.1.15,2013-03-23 23:43:00,
2013-03-23 18:46:00,79.8,61.1,29.48,SE,143,4.0,10.0,53,0.00,,,0.00,Wunderground v.1.15,2013-03-23 23:46:00,
2013-03-23 18:47:00,79.8,61.1,29.48,South,181,4.0,10.0,53,0.00,,,0.00,Wunderground v.1.15,2013-03-23 23:47:00,
2013-03-23 18:48:00,79.8,61.1,29.48,SE,144,4.0,10.0,53,0.00,,,0.00,Wunderground v.1.15,2013-03-23 23:48:00,
2013-03-23 18:53:00,79.4,60.8,29.48,SE,141,5.0,11.0,53,0.00,,,0.00,Wunderground v.1.15,2013-03-23 23:53:00,
2013-03-23 18:54:00,79.4,60.8,29.48,SSE,152,5.0,11.0,53,0.00,,,0.00,Wunderground v.1.15,2013-03-23 23:54:00,
2013-03-23 18:55:00,79.2,60.6,29.48,ESE,123,5.0,11.0,53,0.00,,,0.00,Wunderground v.1.15,2013-03-23 23:55:00,
2013-03-23 18:58:00,79.2,60.6,29.48,ESE,120,5.0,11.0,53,0.00,,,0.00,Wunderground v.1.15,2013-03-23 23:58:00,
2013-03-23 18:59:00,79.2,61.1,29.48,ESE,120,4.0,11.0,54,0.00,,,0.00,Wunderground v.1.15,2013-03-23 23:59:00,
2013-03-23 19:00:00,79.0,60.9,29.48,ESE,120,4.0,10.0,54,0.00,,,0.00,Wunderground v.1.15,2013-03-24 00:00:00,
2013-03-23 19:02:00,79.0,60.9,29.49,ESE,123,4.0,10.0,54,0.00,,,0.00,Wunderground v.1.15,2013-03-24 00:02:00,
2013-03-23 19:05:00,78.8,60.7,29.49,ESE,123,4.0,10.0,54,0.00,,,0.00,Wunderground v.1.15,2013-03-24 00:05:00,
2013-03-23 19:07:00,78.8,60.7,29.49,SE,127,4.0,10.0,54,0.00,,,0.00,Wunderground v.1.15,2013-03-24 00:07:00,
2013-03-23 19:11:00,78.8,60.7,29.49,SE,140,4.0,4.0,54,0.00,,,0.00,Wunderground v.1.15,2013-03-24 00:11:00,
2013-03-23 19:12:00,78.8,60.7,29.49,SE,141,4.0,11.0,54,0.00,,,0.00,Wunderground v.1.15,2013-03-24 00:12:00,
2013-03-23 19:15:00,78.8,60.7,29.49,SE,133,4.0,11.0,54,0.00,,,0.00,Wunderground v.1.15,2013-03-24 00:15:00,
2013-03-23 19:17:00,78.8,60.7,29.49,SE,133,3.0,11.0,54,0.00,,,0.00,Wunderground v.1.15,2013-03-24 00:17:00,
2013-03-23 19:18:00,78.8,60.7,29.49,South,174,3.0,11.0,54,0.00,,,0.00,Wunderground v.1.15,2013-03-24 00:18:00,
2013-03-23 19:19:00,78.8,60.7,29.49,South,169,3.0,11.0,54,0.00,,,0.00,Wunderground v.1.15,2013-03-24 00:19:00,
2013-03-23 19:23:00,78.6,60.6,29.49,SE,137,3.0,9.0,54,0.00,,,0.00,Wunderground v.1.15,2013-03-24 00:23:00,
2013-03-23 19:24:00,78.6,60.6,29.49,SE,137,3.0,9.0,54,0.00,,,0.00,Wunderground v.1.15,2013-03-24 00:24:00,
2013-03-23 19:25:00,78.6,60.6,29.49,SE,137,3.0,9.0,54,0.00,,,0.00,Wunderground v.1.15,2013-03-24 00:25:00,
2013-03-23 19:28:00,78.6,60.6,29.49,SE,137,3.0,9.0,54,0.00,,,0.00,Wunderground v.1.15,2013-03-24 00:28:00,
2013-03-23 19:32:00,78.5,60.5,29.49,SE,137,3.0,8.0,54,0.00,,,0.00,Wunderground v.1.15,2013-03-24 00:32:00,
2013-03-23 19:34:00,78.3,60.3,29.49,SE,137,2.0,8.0,54,0.00,,,0.00,Wunderground v.1.15,2013-03-24 00:34:00,
2013-03-23 19:36:00,78.3,60.3,29.49,SE,138,2.0,8.0,54,0.00,,,0.00,Wunderground v.1.15,2013-03-24 00:36:00,
2013-03-23 19:38:00,78.1,60.6,29.49,SE,138,2.0,8.0,55,0.00,,,0.00,Wunderground v.1.15,2013-03-24 00:38:00,
2013-03-23 19:41:00,78.1,60.6,29.49,SE,138,2.0,8.0,55,0.00,,,0.00,Wunderground v.1.15,2013-03-24 00:41:00,
2013-03-23 19:44:00,77.9,60.4,29.49,SE,138,2.0,8.0,55,0.00,,,0.00,Wunderground v.1.15,2013-03-24 00:44:00,
2013-03-23 19:48:00,77.7,60.2,29.50,SE,137,1.0,8.0,55,0.00,,,0.00,Wunderground v.1.15,2013-03-24 00:48:00,
2013-03-23 19:51:00,77.6,60.7,29.50,SE,137,1.0,1.0,56,0.00,,,0.00,Wunderground v.1.15,2013-03-24 00:51:00,
2013-03-23 19:52:00,77.4,60.5,29.50,SE,137,1.0,5.0,56,0.00,,,0.00,Wunderground v.1.15,2013-03-24 00:52:00,
2013-03-23 19:54:00,77.4,60.5,29.50,SE,137,2.0,6.0,56,0.00,,,0.00,Wunderground v.1.15,2013-03-24 00:54:00,
2013-03-23 19:59:00,77.0,60.6,29.50,SE,137,2.0,6.0,57,0.00,,,0.00,Wunderground v.1.15,2013-03-24 00:59:00,
2013-03-23 20:00:00,77.0,60.6,29.50,SE,137,2.0,2.0,57,0.00,,,0.00,Wunderground v.1.15,2013-03-24 01:00:00,
2013-03-23 20:02:00,76.8,60.4,29.50,SE,137,2.0,5.0,57,0.00,,,0.00,Wunderground v.1.15,2013-03-24 01:02:00,
2013-03-23 20:03:00,76.8,60.4,29.50,SE,137,2.0,5.0,57,0.00,,,0.00,Wunderground v.1.15,2013-03-24 01:03:00,
2013-03-23 20:08:00,76.7,60.8,29.50,SE,137,1.0,5.0,58,0.00,,,0.00,Wunderground v.1.15,2013-03-24 01:08:00,
2013-03-23 20:09:00,76.5,60.6,29.50,SE,137,1.0,5.0,58,0.00,,,0.00,Wunderground v.1.15,2013-03-24 01:09:00,
2013-03-23 20:13:00,76.1,60.2,29.50,SE,136,1.0,6.0,58,0.00,,,0.00,Wunderground v.1.15,2013-03-24 01:13:00,
2013-03-23 20:15:00,76.0,60.6,29.50,SE,126,2.0,6.0,59,0.00,,,0.00,Wunderground v.1.15,2013-03-24 01:15:00,
2013-03-23 20:18:00,75.8,60.4,29.51,SE,127,2.0,6.0,59,0.00,,,0.00,Wunderground v.1.15,2013-03-24 01:18:00,
2013-03-23 20:20:00,75.6,60.7,29.51,SE,124,2.0,2.0,60,0.00,,,0.00,Wunderground v.1.15,2013-03-24 01:20:00,
2013-03-23 20:22:00,75.4,60.5,29.51,SE,124,2.0,3.0,60,0.00,,,0.00,Wunderground v.1.15,2013-03-24 01:22:00,
2013-03-23 20:24:00,75.3,60.5,29.51,SE,124,1.0,3.0,60,0.00,,,0.00,Wunderground v.1.15,2013-03-24 01:24:00,
2013-03-23 20:25:00,75.3,60.5,29.51,SE,124,1.0,3.0,60,0.00,,,0.00,Wunderground v.1.15,2013-03-24 01:25:00,
2013-03-23 20:26:00,75.1,60.3,29.51,SE,124,1.0,3.0,60,0.00,,,0.00,Wunderground v.1.15,2013-03-24 01:26:00,
2013-03-23 20:29:00,74.9,60.1,29.51,SE,124,1.0,3.0,60,0.00,,,0.00,Wunderground v.1.15,2013-03-24 01:29:00,
2013-03-23 20:32:00,74.7,60.4,29.52,East,92,2.0,5.0,61,0.00,,,0.00,Wunderground v.1.15,2013-03-24 01:32:00,
2013-03-23 20:35:00,74.6,60.3,29.52,East,96,2.0,5.0,61,0.00,,,0.00,Wunderground v.1.15,2013-03-24 01:35:00,
2013-03-23 20:36:00,74.6,60.3,29.52,East,96,2.0,5.0,61,0.00,,,0.00,Wunderground v.1.15,2013-03-24 01:36:00,
2013-03-23 20:39:00,74.4,60.1,29.52,East,96,1.0,5.0,61,0.00,,,0.00,Wunderground v.1.15,2013-03-24 01:39:00,
2013-03-23 20:42:00,74.4,60.1,29.52,East,96,1.0,6.0,61,0.00,,,0.00,Wunderground v.1.15,2013-03-24 01:42:00,
2013-03-23 20:43:00,74.2,59.9,29.52,East,96,1.0,6.0,61,0.00,,,0.00,Wunderground v.1.15,2013-03-24 01:43:00,
2013-03-23 20:47:00,74.0,60.2,29.52,East,96,1.0,6.0,62,0.00,,,0.00,Wunderground v.1.15,2013-03-24 01:47:00,
2013-03-23 20:50:00,73.9,60.1,29.52,East,96,1.0,6.0,62,0.00,,,0.00,Wunderground v.1.15,2013-03-24 01:50:00,
2013-03-23 20:53:00,73.7,59.9,29.52,East,96,1.0,5.0,62,0.00,,,0.00,Wunderground v.1.15,2013-03-24 01:53:00,
2013-03-23 20:54:00,73.7,59.9,29.52,East,96,1.0,5.0,62,0.00,,,0.00,Wunderground v.1.15,2013-03-24 01:54:00,
2013-03-23 20:55:00,73.5,59.7,29.52,ENE,68,1.0,5.0,62,0.00,,,0.00,Wunderground v.1.15,2013-03-24 01:55:00,
2013-03-23 20:57:00,73.5,59.7,29.52,East,80,2.0,6.0,62,0.00,,,0.00,Wunderground v.1.15,2013-03-24 01:57:00,
2013-03-23 21:01:00,73.2,59.4,29.53,East,83,2.0,2.0,62,0.00,,,0.00,Wunderground v.1.15,2013-03-24 02:01:00,
2013-03-23 21:03:00,73.0,59.7,29.53,East,83,1.0,3.0,63,0.00,,,0.00,Wunderground v.1.15,2013-03-24 02:03:00,
2013-03-23 21:04:00,73.0,59.7,29.53,East,83,1.0,3.0,63,0.00,,,0.00,Wunderground v.1.15,2013-03-24 02:04:00,
2013-03-23 21:05:00,73.0,59.7,29.53,East,83,1.0,3.0,63,0.00,,,0.00,Wunderground v.1.15,2013-03-24 02:05:00,
2013-03-23 21:09:00,72.8,59.5,29.53,East,83,1.0,3.0,63,0.00,,,0.00,Wunderground v.1.15,2013-03-24 02:09:00,
2013-03-23 21:11:00,72.7,59.4,29.53,East,83,1.0,6.0,63,0.00,,,0.00,Wunderground v.1.15,2013-03-24 02:11:00,
2013-03-23 21:13:00,72.7,59.4,29.53,East,83,2.0,6.0,63,0.00,,,0.00,Wunderground v.1.15,2013-03-24 02:13:00,
2013-03-23 21:16:00,72.5,59.2,29.54,East,83,1.0,6.0,63,0.00,,,0.00,Wunderground v.1.15,2013-03-24 02:16:00,
2013-03-23 21:18:00,72.5,59.2,29.54,East,83,1.0,6.0,63,0.00,,,0.00,Wunderground v.1.15,2013-03-24 02:18:00,
2013-03-23 21:20:00,72.3,59.0,29.54,East,83,1.0,6.0,63,0.00,,,0.00,Wunderground v.1.15,2013-03-24 02:20:00,
2013-03-23 21:25:00,72.1,58.8,29.54,East,83,1.0,5.0,63,0.00,,,0.00,Wunderground v.1.15,2013-03-24 02:25:00,
2013-03-23 21:26:00,72.1,59.2,29.54,East,83,1.0,5.0,64,0.00,,,0.00,Wunderground v.1.15,2013-03-24 02:26:00,
2013-03-23 21:28:00,72.1,59.2,29.54,East,83,1.0,5.0,64,0.00,,,0.00,Wunderground v.1.15,2013-03-24 02:28:00,
2013-03-23 21:32:00,72.0,59.2,29.55,East,83,0.0,5.0,64,0.00,,,0.00,Wunderground v.1.15,2013-03-24 02:32:00,
2013-03-23 21:34:00,71.8,59.0,29.55,East,83,0.0,5.0,64,0.00,,,0.00,Wunderground v.1.15,2013-03-24 02:34:00,
2013-03-23 21:36:00,71.8,59.0,29.55,East,83,0.0,5.0,64,0.00,,,0.00,Wunderground v.1.15,2013-03-24 02:36:00,
2013-03-23 21:37:00,71.8,59.0,29.55,East,83,0.0,5.0,64,0.00,,,0.00,Wunderground v.1.15,2013-03-24 02:37:00,
2013-03-23 21:39:00,71.6,59.2,29.55,East,83,0.0,5.0,65,0.00,,,0.00,Wunderground v.1.15,2013-03-24 02:39:00,
2013-03-23 21:41:00,71.6,59.2,29.55,East,83,0.0,3.0,65,0.00,,,0.00,Wunderground v.1.15,2013-03-24 02:41:00,
2013-03-23 21:42:00,71.6,59.2,29.55,East,83,0.0,3.0,65,0.00,,,0.00,Wunderground v.1.15,2013-03-24 02:42:00,
2013-03-23 21:44:00,71.5,59.1,29.55,East,83,0.0,3.0,65,0.00,,,0.00,Wunderground v.1.15,2013-03-24 02:44:00,
2013-03-23 21:47:00,71.5,59.1,29.56,East,83,0.0,3.0,65,0.00,,,0.00,Wunderground v.1.15,2013-03-24 02:47:00,
2013-03-23 21:49:00,71.3,58.9,29.56,East,83,0.0,3.0,65,0.00,,,0.00,Wunderground v.1.15,2013-03-24 02:49:00,
2013-03-23 21:53:00,71.1,58.7,29.56,East,83,0.0,3.0,65,0.00,,,0.00,Wunderground v.1.15,2013-03-24 02:53:00,
2013-03-23 21:55:00,70.9,58.5,29.56,East,83,0.0,3.0,65,0.00,,,0.00,Wunderground v.1.15,2013-03-24 02:55:00,
2013-03-23 21:58:00,70.8,58.9,29.56,East,83,0.0,3.0,66,0.00,,,0.00,Wunderground v.1.15,2013-03-24 02:58:00,
2013-03-23 21:59:00,70.8,58.9,29.56,East,83,0.0,3.0,66,0.00,,,0.00,Wunderground v.1.15,2013-03-24 02:59:00,
2013-03-23 22:01:00,70.8,58.9,29.56,East,83,0.0,3.0,66,0.00,,,0.00,Wunderground v.1.15,2013-03-24 03:01:00,
2013-03-23 22:03:00,70.6,58.7,29.56,East,83,0.0,3.0,66,0.00,,,0.00,Wunderground v.1.15,2013-03-24 03:03:00,
2013-03-23 22:04:00,70.6,58.7,29.56,East,83,0.0,3.0,66,0.00,,,0.00,Wunderground v.1.15,2013-03-24 03:04:00,
2013-03-23 22:07:00,70.4,58.5,29.56,East,83,0.0,3.0,66,0.00,,,0.00,Wunderground v.1.15,2013-03-24 03:07:00,
2013-03-23 22:09:00,70.4,58.9,29.56,East,83,0.0,3.0,67,0.00,,,0.00,Wunderground v.1.15,2013-03-24 03:09:00,
2013-03-23 22:10:00,70.3,58.8,29.56,East,83,0.0,3.0,67,0.00,,,0.00,Wunderground v.1.15,2013-03-24 03:10:00,
2013-03-23 22:15:00,70.3,58.8,29.56,ENE,78,0.0,3.0,67,0.00,,,0.00,Wunderground v.1.15,2013-03-24 03:15:00,
2013-03-23 22:16:00,70.3,58.8,29.58,ENE,78,1.0,3.0,67,0.00,,,0.00,Wunderground v.1.15,2013-03-24 03:16:00,
2013-03-23 22:19:00,70.3,58.8,29.58,ENE,78,1.0,3.0,67,0.00,,,0.00,Wunderground v.1.15,2013-03-24 03:19:00,
2013-03-23 22:21:00,70.3,58.8,29.58,ENE,78,1.0,1.0,67,0.00,,,0.00,Wunderground v.1.15,2013-03-24 03:21:00,
2013-03-23 22:23:00,70.1,58.6,29.58,ENE,78,1.0,2.0,67,0.00,,,0.00,Wunderground v.1.15,2013-03-24 03:23:00,
2013-03-23 22:24:00,70.1,58.6,29.58,ENE,78,1.0,2.0,67,0.00,,,0.00,Wunderground v.1.15,2013-03-24 03:24:00,
2013-03-23 22:29:00,69.9,58.4,29.58,ENE,78,0.0,2.0,67,0.00,,,0.00,Wunderground v.1.15,2013-03-24 03:29:00,
2013-03-23 22:30:00,69.9,58.4,29.58,East,79,0.0,3.0,67,0.00,,,0.00,Wunderground v.1.15,2013-03-24 03:30:00,
2013-03-23 22:32:00,69.9,58.4,29.58,East,79,0.0,3.0,67,0.00,,,0.00,Wunderground v.1.15,2013-03-24 03:32:00,
2013-03-23 22:37:00,69.8,58.8,29.58,East,79,0.0,3.0,68,0.00,,,0.00,Wunderground v.1.15,2013-03-24 03:37:00,
2013-03-23 22:38:00,69.6,58.6,29.58,East,79,0.0,3.0,68,0.00,,,0.00,Wunderground v.1.15,2013-03-24 03:38:00,
2013-03-23 22:39:00,69.6,58.6,29.58,East,79,0.0,3.0,68,0.00,,,0.00,Wunderground v.1.15,2013-03-24 03:39:00,
2013-03-23 22:42:00,69.6,58.6,29.58,East,79,0.0,3.0,68,0.00,,,0.00,Wunderground v.1.15,2013-03-24 03:42:00,
2013-03-23 22:45:00,69.6,58.6,29.58,East,79,0.0,3.0,68,0.00,,,0.00,Wunderground v.1.15,2013-03-24 03:45:00,
2013-03-23 22:49:00,69.4,58.4,29.58,East,79,0.0,3.0,68,0.00,,,0.00,Wunderground v.1.15,2013-03-24 03:49:00,
2013-03-23 22:51:00,69.4,58.4,29.58,East,79,0.0,3.0,68,0.00,,,0.00,Wunderground v.1.15,2013-03-24 03:51:00,
2013-03-23 22:54:00,69.3,58.3,29.58,East,79,0.0,3.0,68,0.00,,,0.00,Wunderground v.1.15,2013-03-24 03:54:00,
2013-03-23 22:56:00,69.3,58.3,29.58,East,79,0.0,3.0,68,0.00,,,0.00,Wunderground v.1.15,2013-03-24 03:56:00,
2013-03-23 23:01:00,69.1,58.5,29.59,East,79,0.0,1.0,69,0.00,,,0.00,Wunderground v.1.15,2013-03-24 04:01:00,
2013-03-23 23:02:00,69.1,58.5,29.59,East,79,0.0,1.0,69,0.00,,,0.00,Wunderground v.1.15,2013-03-24 04:02:00,
2013-03-23 23:04:00,69.1,58.5,29.59,East,79,0.0,1.0,69,0.00,,,0.00,Wunderground v.1.15,2013-03-24 04:04:00,
2013-03-23 23:07:00,68.9,58.3,29.59,East,79,0.0,1.0,69,0.00,,,0.00,Wunderground v.1.15,2013-03-24 04:07:00,
2013-03-23 23:09:00,68.9,58.3,29.59,East,79,0.0,1.0,69,0.00,,,0.00,Wunderground v.1.15,2013-03-24 04:09:00,
2013-03-23 23:11:00,68.9,58.3,29.59,East,79,0.0,0.0,69,0.00,,,0.00,Wunderground v.1.15,2013-03-24 04:11:00,
2013-03-23 23:13:00,68.8,58.2,29.59,East,79,0.0,0.0,69,0.00,,,0.00,Wunderground v.1.15,2013-03-24 04:13:00,
2013-03-23 23:16:00,68.8,58.2,29.59,East,79,0.0,0.0,69,0.00,,,0.00,Wunderground v.1.15,2013-03-24 04:16:00,
2013-03-23 23:19:00,68.8,58.2,29.59,East,79,0.0,0.0,69,0.00,,,0.00,Wunderground v.1.15,2013-03-24 04:19:00,
2013-03-23 23:21:00,68.6,58.4,29.59,East,79,0.0,2.0,70,0.00,,,0.00,Wunderground v.1.15,2013-03-24 04:21:00,
2013-03-23 23:23:00,68.6,58.4,29.59,East,79,0.0,2.0,70,0.00,,,0.00,Wunderground v.1.15,2013-03-24 04:23:00,
2013-03-23 23:25:00,68.6,58.4,29.59,East,79,0.0,2.0,70,0.00,,,0.00,Wunderground v.1.15,2013-03-24 04:25:00,
2013-03-23 23:27:00,68.6,58.4,29.59,East,79,0.0,2.0,70,0.00,,,0.00,Wunderground v.1.15,2013-03-24 04:27:00,
2013-03-23 23:31:00,68.6,58.4,29.59,East,79,0.0,0.0,70,0.00,,,0.00,Wunderground v.1.15,2013-03-24 04:31:00,
2013-03-23 23:32:00,68.6,58.4,29.59,East,79,0.0,0.0,70,0.00,,,0.00,Wunderground v.1.15,2013-03-24 04:32:00,
2013-03-23 23:33:00,68.6,58.4,29.59,East,79,0.0,0.0,70,0.00,,,0.00,Wunderground v.1.15,2013-03-24 04:33:00,
2013-03-23 23:36:00,68.6,58.4,29.59,East,79,0.0,0.0,70,0.00,,,0.00,Wunderground v.1.15,2013-03-24 04:36:00,
2013-03-23 23:37:00,68.6,58.4,29.59,East,79,0.0,0.0,70,0.00,,,0.00,Wunderground v.1.15,2013-03-24 04:37:00,
2013-03-23 23:39:00,68.4,58.2,29.59,East,79,0.0,0.0,70,0.00,,,0.00,Wunderground v.1.15,2013-03-24 04:39:00,
2013-03-23 23:41:00,68.4,58.2,29.59,East,79,0.0,1.0,70,0.00,,,0.00,Wunderground v.1.15,2013-03-24 04:41:00,
2013-03-23 23:43:00,68.4,58.2,29.59,East,79,0.0,2.0,70,0.00,,,0.00,Wunderground v.1.15,2013-03-24 04:43:00,
2013-03-23 23:45:00,68.4,58.2,29.59,East,79,0.0,2.0,70,0.00,,,0.00,Wunderground v.1.15,2013-03-24 04:45:00,
2013-03-23 23:46:00,68.4,58.2,29.60,East,79,1.0,2.0,70,0.00,,,0.00,Wunderground v.1.15,2013-03-24 04:46:00,
2013-03-23 23:48:00,68.3,58.1,29.60,East,79,1.0,2.0,70,0.00,,,0.00,Wunderground v.1.15,2013-03-24 04:48:00,
2013-03-23 23:51:00,68.3,58.5,29.60,North,8,1.0,2.0,71,0.00,,,0.00,Wunderground v.1.15,2013-03-24 04:51:00,
2013-03-23 23:52:00,68.3,58.5,29.60,North,10,2.0,2.0,71,0.00,,,0.00,Wunderground v.1.15,2013-03-24 04:52:00,
2013-03-23 23:54:00,68.1,58.3,29.60,NNE,16,2.0,3.0,71,0.00,,,0.00,Wunderground v.1.15,2013-03-24 04:54:00,
2013-03-23 23:56:00,68.1,58.3,29.60,NNE,16,2.0,3.0,71,0.00,,,0.00,Wunderground v.1.15,2013-03-24 04:56:00,